<?xml version="1.0" encoding="UTF-8" standalone="no" ?>
<gpx xmlns="http://www.topografix.com/GPX/1/1" xmlns:xsi="http://www.w3.org/2001/XMLSchema-instance" xsi:schemaLocation="http://www.topografix.com/GPX/1/1 http://www.topografix.com/GPX/1/1/gpx.xsd" version="1.1" creator="VisuGPX - https://www.visugpx.com">
  <metadata>
    <name>Bouc Bel Air Grand Puech aller-retour</name>
    <desc><![CDATA[Aller - Retour Bouc Bel Air Grand Puech ]]></desc>
  </metadata>
  <trk>
    <name><![CDATA[BBA Pilon - Grand Puech]]></name>
    <cmt><![CDATA[28 avr. 2013 15:46:41]]></cmt>
    <trkseg>
      <trkpt lat="43.4409" lon="5.40853">
        <ele>103</ele>
        <time>2013-04-28T13:46:49Z</time>
      </trkpt>
      <trkpt lat="43.44111" lon="5.4086">
        <ele>132</ele>
        <time>2013-04-28T13:47:28Z</time>
      </trkpt>
      <trkpt lat="43.441" lon="5.40922">
        <ele>170</ele>
        <time>2013-04-28T13:49:39Z</time>
      </trkpt>
      <trkpt lat="43.44057" lon="5.40947">
        <ele>173</ele>
        <time>2013-04-28T13:49:54Z</time>
      </trkpt>
      <trkpt lat="43.44016" lon="5.40971">
        <ele>173</ele>
        <time>2013-04-28T13:50:04Z</time>
      </trkpt>
      <trkpt lat="43.43971" lon="5.40991">
        <ele>174</ele>
        <time>2013-04-28T13:50:14Z</time>
      </trkpt>
      <trkpt lat="43.43929" lon="5.4102">
        <ele>176</ele>
        <time>2013-04-28T13:50:25Z</time>
      </trkpt>
      <trkpt lat="43.43889" lon="5.41054">
        <ele>178</ele>
        <time>2013-04-28T13:50:37Z</time>
      </trkpt>
      <trkpt lat="43.43846" lon="5.41081">
        <ele>179</ele>
        <time>2013-04-28T13:50:49Z</time>
      </trkpt>
      <trkpt lat="43.43801" lon="5.41103">
        <ele>180</ele>
        <time>2013-04-28T13:51:02Z</time>
      </trkpt>
      <trkpt lat="43.43756" lon="5.41111">
        <ele>181</ele>
        <time>2013-04-28T13:51:13Z</time>
      </trkpt>
      <trkpt lat="43.4371" lon="5.41121">
        <ele>181</ele>
        <time>2013-04-28T13:51:24Z</time>
      </trkpt>
      <trkpt lat="43.43667" lon="5.4109">
        <ele>182</ele>
        <time>2013-04-28T13:51:36Z</time>
      </trkpt>
      <trkpt lat="43.43664" lon="5.41028">
        <ele>183</ele>
        <time>2013-04-28T13:51:44Z</time>
      </trkpt>
      <trkpt lat="43.43658" lon="5.40958">
        <ele>184</ele>
        <time>2013-04-28T13:51:53Z</time>
      </trkpt>
      <trkpt lat="43.43609" lon="5.4095">
        <ele>186</ele>
        <time>2013-04-28T13:52:02Z</time>
      </trkpt>
      <trkpt lat="43.43561" lon="5.4096">
        <ele>187</ele>
        <time>2013-04-28T13:52:11Z</time>
      </trkpt>
      <trkpt lat="43.43511" lon="5.4097">
        <ele>189</ele>
        <time>2013-04-28T13:52:20Z</time>
      </trkpt>
      <trkpt lat="43.43462" lon="5.4098">
        <ele>190</ele>
        <time>2013-04-28T13:52:29Z</time>
      </trkpt>
      <trkpt lat="43.43452" lon="5.40918">
        <ele>191</ele>
        <time>2013-04-28T13:52:37Z</time>
      </trkpt>
      <trkpt lat="43.4346" lon="5.40856">
        <ele>191</ele>
        <time>2013-04-28T13:52:44Z</time>
      </trkpt>
      <trkpt lat="43.43475" lon="5.40791">
        <ele>192</ele>
        <time>2013-04-28T13:52:51Z</time>
      </trkpt>
      <trkpt lat="43.43497" lon="5.40725">
        <ele>192</ele>
        <time>2013-04-28T13:52:58Z</time>
      </trkpt>
      <trkpt lat="43.43524" lon="5.40665">
        <ele>192</ele>
        <time>2013-04-28T13:53:05Z</time>
      </trkpt>
      <trkpt lat="43.43551" lon="5.40603">
        <ele>191</ele>
        <time>2013-04-28T13:53:12Z</time>
      </trkpt>
      <trkpt lat="43.43576" lon="5.40546">
        <ele>191</ele>
        <time>2013-04-28T13:53:18Z</time>
      </trkpt>
      <trkpt lat="43.43591" lon="5.40486">
        <ele>191</ele>
        <time>2013-04-28T13:53:24Z</time>
      </trkpt>
      <trkpt lat="43.43604" lon="5.40416">
        <ele>191</ele>
        <time>2013-04-28T13:53:31Z</time>
      </trkpt>
      <trkpt lat="43.43561" lon="5.4039">
        <ele>189</ele>
        <time>2013-04-28T13:53:38Z</time>
      </trkpt>
      <trkpt lat="43.43512" lon="5.40397">
        <ele>188</ele>
        <time>2013-04-28T13:53:47Z</time>
      </trkpt>
      <trkpt lat="43.43461" lon="5.40391">
        <ele>187</ele>
        <time>2013-04-28T13:53:55Z</time>
      </trkpt>
      <trkpt lat="43.43417" lon="5.40374">
        <ele>187</ele>
        <time>2013-04-28T13:54:04Z</time>
      </trkpt>
      <trkpt lat="43.43372" lon="5.40357">
        <ele>188</ele>
        <time>2013-04-28T13:54:11Z</time>
      </trkpt>
      <trkpt lat="43.43325" lon="5.40345">
        <ele>188</ele>
        <time>2013-04-28T13:54:18Z</time>
      </trkpt>
      <trkpt lat="43.43275" lon="5.40341">
        <ele>188</ele>
        <time>2013-04-28T13:54:26Z</time>
      </trkpt>
      <trkpt lat="43.43226" lon="5.4035">
        <ele>188</ele>
        <time>2013-04-28T13:54:35Z</time>
      </trkpt>
      <trkpt lat="43.4318" lon="5.40332">
        <ele>189</ele>
        <time>2013-04-28T13:54:44Z</time>
      </trkpt>
      <trkpt lat="43.43134" lon="5.40284">
        <ele>191</ele>
        <time>2013-04-28T13:54:55Z</time>
      </trkpt>
      <trkpt lat="43.43091" lon="5.40256">
        <ele>192</ele>
        <time>2013-04-28T13:55:04Z</time>
      </trkpt>
      <trkpt lat="43.43041" lon="5.40254">
        <ele>193</ele>
        <time>2013-04-28T13:55:13Z</time>
      </trkpt>
      <trkpt lat="43.42989" lon="5.40298">
        <ele>193</ele>
        <time>2013-04-28T13:55:25Z</time>
      </trkpt>
      <trkpt lat="43.42963" lon="5.40351">
        <ele>194</ele>
        <time>2013-04-28T13:55:39Z</time>
      </trkpt>
      <trkpt lat="43.42919" lon="5.40367">
        <ele>195</ele>
        <time>2013-04-28T13:55:54Z</time>
      </trkpt>
      <trkpt lat="43.42908" lon="5.40305">
        <ele>196</ele>
        <time>2013-04-28T13:56:11Z</time>
      </trkpt>
      <trkpt lat="43.42872" lon="5.40259">
        <ele>200</ele>
        <time>2013-04-28T13:56:25Z</time>
      </trkpt>
      <trkpt lat="43.42831" lon="5.40226">
        <ele>203</ele>
        <time>2013-04-28T13:56:36Z</time>
      </trkpt>
      <trkpt lat="43.42786" lon="5.40202">
        <ele>204</ele>
        <time>2013-04-28T13:56:47Z</time>
      </trkpt>
      <trkpt lat="43.42739" lon="5.40204">
        <ele>205</ele>
        <time>2013-04-28T13:56:57Z</time>
      </trkpt>
      <trkpt lat="43.42745" lon="5.40273">
        <ele>206</ele>
        <time>2013-04-28T13:57:05Z</time>
      </trkpt>
      <trkpt lat="43.42773" lon="5.40325">
        <ele>206</ele>
        <time>2013-04-28T13:57:12Z</time>
      </trkpt>
      <trkpt lat="43.42767" lon="5.40387">
        <ele>206</ele>
        <time>2013-04-28T13:57:18Z</time>
      </trkpt>
      <trkpt lat="43.4275" lon="5.40446">
        <ele>207</ele>
        <time>2013-04-28T13:57:25Z</time>
      </trkpt>
      <trkpt lat="43.42766" lon="5.40506">
        <ele>207</ele>
        <time>2013-04-28T13:57:34Z</time>
      </trkpt>
      <trkpt lat="43.42792" lon="5.40558">
        <ele>208</ele>
        <time>2013-04-28T13:57:41Z</time>
      </trkpt>
      <trkpt lat="43.4281" lon="5.40621">
        <ele>209</ele>
        <time>2013-04-28T13:57:49Z</time>
      </trkpt>
      <trkpt lat="43.42831" lon="5.40682">
        <ele>210</ele>
        <time>2013-04-28T13:57:56Z</time>
      </trkpt>
      <trkpt lat="43.42851" lon="5.4075">
        <ele>211</ele>
        <time>2013-04-28T13:58:03Z</time>
      </trkpt>
      <trkpt lat="43.42867" lon="5.40808">
        <ele>212</ele>
        <time>2013-04-28T13:58:09Z</time>
      </trkpt>
      <trkpt lat="43.42886" lon="5.40873">
        <ele>213</ele>
        <time>2013-04-28T13:58:16Z</time>
      </trkpt>
      <trkpt lat="43.42889" lon="5.40941">
        <ele>213</ele>
        <time>2013-04-28T13:58:23Z</time>
      </trkpt>
      <trkpt lat="43.42891" lon="5.4101">
        <ele>213</ele>
        <time>2013-04-28T13:58:30Z</time>
      </trkpt>
      <trkpt lat="43.42886" lon="5.41081">
        <ele>213</ele>
        <time>2013-04-28T13:58:39Z</time>
      </trkpt>
      <trkpt lat="43.42879" lon="5.41149">
        <ele>213</ele>
        <time>2013-04-28T13:58:50Z</time>
      </trkpt>
      <trkpt lat="43.4287" lon="5.41213">
        <ele>214</ele>
        <time>2013-04-28T13:59:01Z</time>
      </trkpt>
      <trkpt lat="43.42867" lon="5.41275">
        <ele>215</ele>
        <time>2013-04-28T13:59:13Z</time>
      </trkpt>
      <trkpt lat="43.42868" lon="5.41337">
        <ele>217</ele>
        <time>2013-04-28T13:59:25Z</time>
      </trkpt>
      <trkpt lat="43.42866" lon="5.414">
        <ele>218</ele>
        <time>2013-04-28T13:59:37Z</time>
      </trkpt>
      <trkpt lat="43.42871" lon="5.41464">
        <ele>218</ele>
        <time>2013-04-28T13:59:48Z</time>
      </trkpt>
      <trkpt lat="43.42877" lon="5.41526">
        <ele>220</ele>
        <time>2013-04-28T13:59:58Z</time>
      </trkpt>
      <trkpt lat="43.42874" lon="5.41591">
        <ele>221</ele>
        <time>2013-04-28T14:00:08Z</time>
      </trkpt>
      <trkpt lat="43.42874" lon="5.41658">
        <ele>222</ele>
        <time>2013-04-28T14:00:16Z</time>
      </trkpt>
      <trkpt lat="43.42876" lon="5.41725">
        <ele>222</ele>
        <time>2013-04-28T14:00:23Z</time>
      </trkpt>
      <trkpt lat="43.42874" lon="5.41789">
        <ele>221</ele>
        <time>2013-04-28T14:00:28Z</time>
      </trkpt>
      <trkpt lat="43.42874" lon="5.41859">
        <ele>219</ele>
        <time>2013-04-28T14:00:34Z</time>
      </trkpt>
      <trkpt lat="43.42893" lon="5.41924">
        <ele>218</ele>
        <time>2013-04-28T14:00:44Z</time>
      </trkpt>
      <trkpt lat="43.42885" lon="5.4199">
        <ele>217</ele>
        <time>2013-04-28T14:00:55Z</time>
      </trkpt>
      <trkpt lat="43.42882" lon="5.42058">
        <ele>216</ele>
        <time>2013-04-28T14:01:07Z</time>
      </trkpt>
      <trkpt lat="43.4288" lon="5.4212">
        <ele>215</ele>
        <time>2013-04-28T14:01:15Z</time>
      </trkpt>
      <trkpt lat="43.42878" lon="5.42183">
        <ele>215</ele>
        <time>2013-04-28T14:01:25Z</time>
      </trkpt>
      <trkpt lat="43.4288" lon="5.42249">
        <ele>215</ele>
        <time>2013-04-28T14:01:35Z</time>
      </trkpt>
      <trkpt lat="43.42874" lon="5.4231">
        <ele>216</ele>
        <time>2013-04-28T14:01:45Z</time>
      </trkpt>
      <trkpt lat="43.42865" lon="5.42371">
        <ele>217</ele>
        <time>2013-04-28T14:01:54Z</time>
      </trkpt>
      <trkpt lat="43.42856" lon="5.42434">
        <ele>219</ele>
        <time>2013-04-28T14:02:04Z</time>
      </trkpt>
      <trkpt lat="43.42856" lon="5.42498">
        <ele>220</ele>
        <time>2013-04-28T14:02:19Z</time>
      </trkpt>
      <trkpt lat="43.42818" lon="5.42439">
        <ele>222</ele>
        <time>2013-04-28T14:02:31Z</time>
      </trkpt>
      <trkpt lat="43.42783" lon="5.42397">
        <ele>223</ele>
        <time>2013-04-28T14:02:36Z</time>
      </trkpt>
      <trkpt lat="43.4276" lon="5.42344">
        <ele>223</ele>
        <time>2013-04-28T14:02:42Z</time>
      </trkpt>
      <trkpt lat="43.42734" lon="5.42293">
        <ele>223</ele>
        <time>2013-04-28T14:02:48Z</time>
      </trkpt>
      <trkpt lat="43.42701" lon="5.42245">
        <ele>224</ele>
        <time>2013-04-28T14:02:58Z</time>
      </trkpt>
      <trkpt lat="43.42671" lon="5.42169">
        <ele>225</ele>
        <time>2013-04-28T14:03:15Z</time>
      </trkpt>
      <trkpt lat="43.42665" lon="5.42105">
        <ele>225</ele>
        <time>2013-04-28T14:03:25Z</time>
      </trkpt>
      <trkpt lat="43.42669" lon="5.42043">
        <ele>228</ele>
        <time>2013-04-28T14:03:47Z</time>
      </trkpt>
      <trkpt lat="43.42631" lon="5.42009">
        <ele>230</ele>
        <time>2013-04-28T14:04:02Z</time>
      </trkpt>
      <trkpt lat="43.42585" lon="5.42006">
        <ele>232</ele>
        <time>2013-04-28T14:04:15Z</time>
      </trkpt>
      <trkpt lat="43.42557" lon="5.41951">
        <ele>233</ele>
        <time>2013-04-28T14:04:31Z</time>
      </trkpt>
      <trkpt lat="43.4251" lon="5.41937">
        <ele>236</ele>
        <time>2013-04-28T14:04:44Z</time>
      </trkpt>
      <trkpt lat="43.42484" lon="5.41989">
        <ele>240</ele>
        <time>2013-04-28T14:05:03Z</time>
      </trkpt>
      <trkpt lat="43.42459" lon="5.42041">
        <ele>246</ele>
        <time>2013-04-28T14:05:23Z</time>
      </trkpt>
      <trkpt lat="43.42446" lon="5.42101">
        <ele>247</ele>
        <time>2013-04-28T14:05:42Z</time>
      </trkpt>
      <trkpt lat="43.42437" lon="5.42162">
        <ele>247</ele>
        <time>2013-04-28T14:06:01Z</time>
      </trkpt>
      <trkpt lat="43.42392" lon="5.42185">
        <ele>250</ele>
        <time>2013-04-28T14:06:16Z</time>
      </trkpt>
      <trkpt lat="43.42355" lon="5.42235">
        <ele>252</ele>
        <time>2013-04-28T14:06:25Z</time>
      </trkpt>
      <trkpt lat="43.42311" lon="5.42257">
        <ele>252</ele>
        <time>2013-04-28T14:06:35Z</time>
      </trkpt>
      <trkpt lat="43.42274" lon="5.42298">
        <ele>253</ele>
        <time>2013-04-28T14:06:48Z</time>
      </trkpt>
      <trkpt lat="43.42247" lon="5.42348">
        <ele>255</ele>
        <time>2013-04-28T14:07:01Z</time>
      </trkpt>
      <trkpt lat="43.42209" lon="5.42386">
        <ele>256</ele>
        <time>2013-04-28T14:07:12Z</time>
      </trkpt>
      <trkpt lat="43.42181" lon="5.42438">
        <ele>257</ele>
        <time>2013-04-28T14:07:24Z</time>
      </trkpt>
      <trkpt lat="43.42135" lon="5.42453">
        <ele>258</ele>
        <time>2013-04-28T14:07:34Z</time>
      </trkpt>
      <trkpt lat="43.42091" lon="5.42437">
        <ele>258</ele>
        <time>2013-04-28T14:07:44Z</time>
      </trkpt>
      <trkpt lat="43.42048" lon="5.42411">
        <ele>260</ele>
        <time>2013-04-28T14:07:56Z</time>
      </trkpt>
      <trkpt lat="43.42021" lon="5.42462">
        <ele>261</ele>
        <time>2013-04-28T14:08:13Z</time>
      </trkpt>
      <trkpt lat="43.41983" lon="5.42495">
        <ele>261</ele>
        <time>2013-04-28T14:08:29Z</time>
      </trkpt>
      <trkpt lat="43.41941" lon="5.42521">
        <ele>265</ele>
        <time>2013-04-28T14:08:54Z</time>
      </trkpt>
      <trkpt lat="43.41913" lon="5.4257">
        <ele>268</ele>
        <time>2013-04-28T14:09:13Z</time>
      </trkpt>
      <trkpt lat="43.41869" lon="5.4259">
        <ele>274</ele>
        <time>2013-04-28T14:09:34Z</time>
      </trkpt>
      <trkpt lat="43.41832" lon="5.4263">
        <ele>277</ele>
        <time>2013-04-28T14:09:52Z</time>
      </trkpt>
      <trkpt lat="43.41786" lon="5.42646">
        <ele>279</ele>
        <time>2013-04-28T14:10:10Z</time>
      </trkpt>
      <trkpt lat="43.41744" lon="5.42621">
        <ele>281</ele>
        <time>2013-04-28T14:10:26Z</time>
      </trkpt>
      <trkpt lat="43.417" lon="5.42603">
        <ele>285</ele>
        <time>2013-04-28T14:10:46Z</time>
      </trkpt>
      <trkpt lat="43.41672" lon="5.42655">
        <ele>288</ele>
        <time>2013-04-28T14:11:06Z</time>
      </trkpt>
      <trkpt lat="43.41637" lon="5.42697">
        <ele>293</ele>
        <time>2013-04-28T14:11:28Z</time>
      </trkpt>
      <trkpt lat="43.4159" lon="5.42685">
        <ele>297</ele>
        <time>2013-04-28T14:11:43Z</time>
      </trkpt>
      <trkpt lat="43.41541" lon="5.42683">
        <ele>301</ele>
        <time>2013-04-28T14:11:57Z</time>
      </trkpt>
      <trkpt lat="43.41522" lon="5.42739">
        <ele>302</ele>
        <time>2013-04-28T14:12:08Z</time>
      </trkpt>
      <trkpt lat="43.41514" lon="5.42801">
        <ele>303</ele>
        <time>2013-04-28T14:12:19Z</time>
      </trkpt>
      <trkpt lat="43.41505" lon="5.42866">
        <ele>304</ele>
        <time>2013-04-28T14:12:31Z</time>
      </trkpt>
      <trkpt lat="43.41502" lon="5.42927">
        <ele>305</ele>
        <time>2013-04-28T14:12:41Z</time>
      </trkpt>
      <trkpt lat="43.41481" lon="5.42983">
        <ele>306</ele>
        <time>2013-04-28T14:12:55Z</time>
      </trkpt>
      <trkpt lat="43.41471" lon="5.42918">
        <ele>308</ele>
        <time>2013-04-28T14:13:17Z</time>
      </trkpt>
      <trkpt lat="43.41469" lon="5.42853">
        <ele>309</ele>
        <time>2013-04-28T14:13:29Z</time>
      </trkpt>
      <trkpt lat="43.41459" lon="5.42781">
        <ele>309</ele>
        <time>2013-04-28T14:13:36Z</time>
      </trkpt>
      <trkpt lat="43.41453" lon="5.42713">
        <ele>309</ele>
        <time>2013-04-28T14:13:42Z</time>
      </trkpt>
      <trkpt lat="43.4147" lon="5.42643">
        <ele>308</ele>
        <time>2013-04-28T14:13:49Z</time>
      </trkpt>
      <trkpt lat="43.41434" lon="5.42587">
        <ele>306</ele>
        <time>2013-04-28T14:14:01Z</time>
      </trkpt>
      <trkpt lat="43.41387" lon="5.42587">
        <ele>304</ele>
        <time>2013-04-28T14:14:10Z</time>
      </trkpt>
      <trkpt lat="43.41347" lon="5.42551">
        <ele>302</ele>
        <time>2013-04-28T14:14:20Z</time>
      </trkpt>
      <trkpt lat="43.41315" lon="5.42507">
        <ele>300</ele>
        <time>2013-04-28T14:14:30Z</time>
      </trkpt>
      <trkpt lat="43.41269" lon="5.42483">
        <ele>299</ele>
        <time>2013-04-28T14:14:42Z</time>
      </trkpt>
      <trkpt lat="43.41235" lon="5.42525">
        <ele>299</ele>
        <time>2013-04-28T14:14:55Z</time>
      </trkpt>
      <trkpt lat="43.41204" lon="5.42572">
        <ele>299</ele>
        <time>2013-04-28T14:15:08Z</time>
      </trkpt>
      <trkpt lat="43.41161" lon="5.42601">
        <ele>299</ele>
        <time>2013-04-28T14:15:20Z</time>
      </trkpt>
      <trkpt lat="43.41116" lon="5.42618">
        <ele>300</ele>
        <time>2013-04-28T14:15:34Z</time>
      </trkpt>
      <trkpt lat="43.41102" lon="5.42679">
        <ele>301</ele>
        <time>2013-04-28T14:15:47Z</time>
      </trkpt>
      <trkpt lat="43.41106" lon="5.42742">
        <ele>303</ele>
        <time>2013-04-28T14:16:05Z</time>
      </trkpt>
      <trkpt lat="43.41102" lon="5.42806">
        <ele>305</ele>
        <time>2013-04-28T14:16:26Z</time>
      </trkpt>
      <trkpt lat="43.41088" lon="5.42867">
        <ele>308</ele>
        <time>2013-04-28T14:16:48Z</time>
      </trkpt>
      <trkpt lat="43.4106" lon="5.42915">
        <ele>312</ele>
        <time>2013-04-28T14:17:09Z</time>
      </trkpt>
      <trkpt lat="43.41027" lon="5.42958">
        <ele>316</ele>
        <time>2013-04-28T14:17:36Z</time>
      </trkpt>
      <trkpt lat="43.40989" lon="5.42993">
        <ele>319</ele>
        <time>2013-04-28T14:18:00Z</time>
      </trkpt>
      <trkpt lat="43.40968" lon="5.4305">
        <ele>324</ele>
        <time>2013-04-28T14:18:20Z</time>
      </trkpt>
      <trkpt lat="43.40973" lon="5.43112">
        <ele>327</ele>
        <time>2013-04-28T14:18:39Z</time>
      </trkpt>
      <trkpt lat="43.40926" lon="5.43105">
        <ele>330</ele>
        <time>2013-04-28T14:19:00Z</time>
      </trkpt>
      <trkpt lat="43.4088" lon="5.43098">
        <ele>333</ele>
        <time>2013-04-28T14:19:14Z</time>
      </trkpt>
      <trkpt lat="43.40863" lon="5.43155">
        <ele>336</ele>
        <time>2013-04-28T14:19:36Z</time>
      </trkpt>
      <trkpt lat="43.40869" lon="5.43219">
        <ele>339</ele>
        <time>2013-04-28T14:19:59Z</time>
      </trkpt>
      <trkpt lat="43.40833" lon="5.43259">
        <ele>342</ele>
        <time>2013-04-28T14:20:21Z</time>
      </trkpt>
      <trkpt lat="43.40794" lon="5.43294">
        <ele>346</ele>
        <time>2013-04-28T14:20:41Z</time>
      </trkpt>
      <trkpt lat="43.40749" lon="5.43303">
        <ele>350</ele>
        <time>2013-04-28T14:21:04Z</time>
      </trkpt>
      <trkpt lat="43.40748" lon="5.43368">
        <ele>354</ele>
        <time>2013-04-28T14:21:29Z</time>
      </trkpt>
      <trkpt lat="43.40764" lon="5.43427">
        <ele>357</ele>
        <time>2013-04-28T14:21:50Z</time>
      </trkpt>
      <trkpt lat="43.40797" lon="5.43471">
        <ele>359</ele>
        <time>2013-04-28T14:22:11Z</time>
      </trkpt>
      <trkpt lat="43.40841" lon="5.4348">
        <ele>363</ele>
        <time>2013-04-28T14:22:28Z</time>
      </trkpt>
      <trkpt lat="43.40868" lon="5.43531">
        <ele>368</ele>
        <time>2013-04-28T14:22:49Z</time>
      </trkpt>
      <trkpt lat="43.40846" lon="5.43587">
        <ele>372</ele>
        <time>2013-04-28T14:23:19Z</time>
      </trkpt>
      <trkpt lat="43.40838" lon="5.43648">
        <ele>375</ele>
        <time>2013-04-28T14:23:44Z</time>
      </trkpt>
      <trkpt lat="43.40854" lon="5.43707">
        <ele>380</ele>
        <time>2013-04-28T14:24:08Z</time>
      </trkpt>
      <trkpt lat="43.40876" lon="5.43761">
        <ele>384</ele>
        <time>2013-04-28T14:24:32Z</time>
      </trkpt>
      <trkpt lat="43.4089" lon="5.43821">
        <ele>388</ele>
        <time>2013-04-28T14:24:59Z</time>
      </trkpt>
      <trkpt lat="43.40856" lon="5.43863">
        <ele>392</ele>
        <time>2013-04-28T14:25:20Z</time>
      </trkpt>
      <trkpt lat="43.40863" lon="5.43924">
        <ele>397</ele>
        <time>2013-04-28T14:25:56Z</time>
      </trkpt>
      <trkpt lat="43.40884" lon="5.43982">
        <ele>402</ele>
        <time>2013-04-28T14:26:14Z</time>
      </trkpt>
      <trkpt lat="43.40859" lon="5.44033">
        <ele>407</ele>
        <time>2013-04-28T14:26:34Z</time>
      </trkpt>
      <trkpt lat="43.40871" lon="5.44093">
        <ele>410</ele>
        <time>2013-04-28T14:26:57Z</time>
      </trkpt>
      <trkpt lat="43.40857" lon="5.44153">
        <ele>415</ele>
        <time>2013-04-28T14:27:18Z</time>
      </trkpt>
      <trkpt lat="43.40875" lon="5.44211">
        <ele>420</ele>
        <time>2013-04-28T14:27:40Z</time>
      </trkpt>
      <trkpt lat="43.40882" lon="5.44272">
        <ele>424</ele>
        <time>2013-04-28T14:28:03Z</time>
      </trkpt>
      <trkpt lat="43.4089" lon="5.44335">
        <ele>429</ele>
        <time>2013-04-28T14:28:23Z</time>
      </trkpt>
      <trkpt lat="43.40911" lon="5.44391">
        <ele>434</ele>
        <time>2013-04-28T14:28:45Z</time>
      </trkpt>
      <trkpt lat="43.40902" lon="5.44452">
        <ele>440</ele>
        <time>2013-04-28T14:29:06Z</time>
      </trkpt>
      <trkpt lat="43.40885" lon="5.44511">
        <ele>443</ele>
        <time>2013-04-28T14:29:32Z</time>
      </trkpt>
      <trkpt lat="43.40874" lon="5.44571">
        <ele>449</ele>
        <time>2013-04-28T14:29:58Z</time>
      </trkpt>
      <trkpt lat="43.4086" lon="5.44631">
        <ele>454</ele>
        <time>2013-04-28T14:30:23Z</time>
      </trkpt>
      <trkpt lat="43.40828" lon="5.44676">
        <ele>459</ele>
        <time>2013-04-28T14:30:47Z</time>
      </trkpt>
      <trkpt lat="43.40821" lon="5.44737">
        <ele>465</ele>
        <time>2013-04-28T14:31:13Z</time>
      </trkpt>
      <trkpt lat="43.40823" lon="5.44801">
        <ele>470</ele>
        <time>2013-04-28T14:31:34Z</time>
      </trkpt>
      <trkpt lat="43.40811" lon="5.44861">
        <ele>475</ele>
        <time>2013-04-28T14:31:56Z</time>
      </trkpt>
      <trkpt lat="43.40796" lon="5.44922">
        <ele>481</ele>
        <time>2013-04-28T14:32:23Z</time>
      </trkpt>
      <trkpt lat="43.4079" lon="5.44985">
        <ele>485</ele>
        <time>2013-04-28T14:32:53Z</time>
      </trkpt>
      <trkpt lat="43.40759" lon="5.45031">
        <ele>490</ele>
        <time>2013-04-28T14:33:21Z</time>
      </trkpt>
      <trkpt lat="43.40726" lon="5.45075">
        <ele>493</ele>
        <time>2013-04-28T14:33:48Z</time>
      </trkpt>
      <trkpt lat="43.40686" lon="5.45108">
        <ele>496</ele>
        <time>2013-04-28T14:34:07Z</time>
      </trkpt>
      <trkpt lat="43.40643" lon="5.45128">
        <ele>500</ele>
        <time>2013-04-28T14:34:27Z</time>
      </trkpt>
      <trkpt lat="43.40637" lon="5.45191">
        <ele>502</ele>
        <time>2013-04-28T14:34:50Z</time>
      </trkpt>
      <trkpt lat="43.40617" lon="5.45248">
        <ele>508</ele>
        <time>2013-04-28T14:35:12Z</time>
      </trkpt>
      <trkpt lat="43.40606" lon="5.4531">
        <ele>513</ele>
        <time>2013-04-28T14:35:35Z</time>
      </trkpt>
      <trkpt lat="43.40639" lon="5.45353">
        <ele>518</ele>
        <time>2013-04-28T14:35:54Z</time>
      </trkpt>
      <trkpt lat="43.40659" lon="5.45412">
        <ele>522</ele>
        <time>2013-04-28T14:36:14Z</time>
      </trkpt>
      <trkpt lat="43.4067" lon="5.45472">
        <ele>526</ele>
        <time>2013-04-28T14:36:36Z</time>
      </trkpt>
      <trkpt lat="43.4068" lon="5.45535">
        <ele>530</ele>
        <time>2013-04-28T14:36:59Z</time>
      </trkpt>
      <trkpt lat="43.40655" lon="5.45587">
        <ele>533</ele>
        <time>2013-04-28T14:37:19Z</time>
      </trkpt>
      <trkpt lat="43.40612" lon="5.45611">
        <ele>537</ele>
        <time>2013-04-28T14:37:41Z</time>
      </trkpt>
      <trkpt lat="43.40604" lon="5.45673">
        <ele>540</ele>
        <time>2013-04-28T14:38:05Z</time>
      </trkpt>
      <trkpt lat="43.40597" lon="5.45736">
        <ele>543</ele>
        <time>2013-04-28T14:38:29Z</time>
      </trkpt>
      <trkpt lat="43.40573" lon="5.45792">
        <ele>547</ele>
        <time>2013-04-28T14:38:48Z</time>
      </trkpt>
      <trkpt lat="43.40574" lon="5.45855">
        <ele>551</ele>
        <time>2013-04-28T14:39:06Z</time>
      </trkpt>
      <trkpt lat="43.40535" lon="5.45884">
        <ele>556</ele>
        <time>2013-04-28T14:39:27Z</time>
      </trkpt>
      <trkpt lat="43.40539" lon="5.45948">
        <ele>560</ele>
        <time>2013-04-28T14:39:52Z</time>
      </trkpt>
      <trkpt lat="43.40566" lon="5.45897">
        <ele>562</ele>
        <time>2013-04-28T14:40:22Z</time>
      </trkpt>
      <trkpt lat="43.40595" lon="5.45849">
        <ele>564</ele>
        <time>2013-04-28T14:40:40Z</time>
      </trkpt>
      <trkpt lat="43.40623" lon="5.45799">
        <ele>566</ele>
        <time>2013-04-28T14:41:02Z</time>
      </trkpt>
      <trkpt lat="43.40638" lon="5.45741">
        <ele>571</ele>
        <time>2013-04-28T14:41:26Z</time>
      </trkpt>
      <trkpt lat="43.40663" lon="5.45683">
        <ele>574</ele>
        <time>2013-04-28T14:41:39Z</time>
      </trkpt>
      <trkpt lat="43.40702" lon="5.45647">
        <ele>576</ele>
        <time>2013-04-28T14:41:56Z</time>
      </trkpt>
      <trkpt lat="43.40738" lon="5.45607">
        <ele>578</ele>
        <time>2013-04-28T14:42:18Z</time>
      </trkpt>
      <trkpt lat="43.40775" lon="5.45569">
        <ele>580</ele>
        <time>2013-04-28T14:42:36Z</time>
      </trkpt>
      <trkpt lat="43.40815" lon="5.456">
        <ele>583</ele>
        <time>2013-04-28T14:42:51Z</time>
      </trkpt>
      <trkpt lat="43.40852" lon="5.45639">
        <ele>586</ele>
        <time>2013-04-28T14:43:05Z</time>
      </trkpt>
      <trkpt lat="43.40859" lon="5.457">
        <ele>587</ele>
        <time>2013-04-28T14:43:15Z</time>
      </trkpt>
      <trkpt lat="43.40832" lon="5.45754">
        <ele>588</ele>
        <time>2013-04-28T14:43:24Z</time>
      </trkpt>
      <trkpt lat="43.40801" lon="5.45802">
        <ele>590</ele>
        <time>2013-04-28T14:43:39Z</time>
      </trkpt>
      <trkpt lat="43.40782" lon="5.45858">
        <ele>591</ele>
        <time>2013-04-28T14:43:54Z</time>
      </trkpt>
      <trkpt lat="43.40776" lon="5.45921">
        <ele>593</ele>
        <time>2013-04-28T14:44:11Z</time>
      </trkpt>
      <trkpt lat="43.40734" lon="5.45952">
        <ele>595</ele>
        <time>2013-04-28T14:44:31Z</time>
      </trkpt>
      <trkpt lat="43.40701" lon="5.45997">
        <ele>597</ele>
        <time>2013-04-28T14:44:55Z</time>
      </trkpt>
      <trkpt lat="43.4066" lon="5.46022">
        <ele>599</ele>
        <time>2013-04-28T14:45:15Z</time>
      </trkpt>
      <trkpt lat="43.40627" lon="5.46064">
        <ele>601</ele>
        <time>2013-04-28T14:45:29Z</time>
      </trkpt>
      <trkpt lat="43.40606" lon="5.4612">
        <ele>603</ele>
        <time>2013-04-28T14:45:47Z</time>
      </trkpt>
      <trkpt lat="43.40606" lon="5.46184">
        <ele>605</ele>
        <time>2013-04-28T14:46:07Z</time>
      </trkpt>
      <trkpt lat="43.40606" lon="5.46249">
        <ele>608</ele>
        <time>2013-04-28T14:46:31Z</time>
      </trkpt>
      <trkpt lat="43.4061" lon="5.46315">
        <ele>610</ele>
        <time>2013-04-28T14:46:40Z</time>
      </trkpt>
      <trkpt lat="43.40615" lon="5.4638">
        <ele>611</ele>
        <time>2013-04-28T14:46:54Z</time>
      </trkpt>
      <trkpt lat="43.40605" lon="5.46441">
        <ele>613</ele>
        <time>2013-04-28T14:47:16Z</time>
      </trkpt>
      <trkpt lat="43.40579" lon="5.46492">
        <ele>615</ele>
        <time>2013-04-28T14:47:42Z</time>
      </trkpt>
      <trkpt lat="43.40584" lon="5.46556">
        <ele>616</ele>
        <time>2013-04-28T14:48:05Z</time>
      </trkpt>
      <trkpt lat="43.40589" lon="5.46619">
        <ele>620</ele>
        <time>2013-04-28T14:48:29Z</time>
      </trkpt>
      <trkpt lat="43.40558" lon="5.46668">
        <ele>623</ele>
        <time>2013-04-28T14:48:49Z</time>
      </trkpt>
      <trkpt lat="43.40557" lon="5.4673">
        <ele>625</ele>
        <time>2013-04-28T14:49:13Z</time>
      </trkpt>
      <trkpt lat="43.4058" lon="5.46784">
        <ele>626</ele>
        <time>2013-04-28T14:49:26Z</time>
      </trkpt>
      <trkpt lat="43.40617" lon="5.46825">
        <ele>626</ele>
        <time>2013-04-28T14:49:34Z</time>
      </trkpt>
      <trkpt lat="43.40573" lon="5.46839">
        <ele>627</ele>
        <time>2013-04-28T14:49:49Z</time>
      </trkpt>
      <trkpt lat="43.40542" lon="5.46886">
        <ele>629</ele>
        <time>2013-04-28T14:50:01Z</time>
      </trkpt>
      <trkpt lat="43.40531" lon="5.46949">
        <ele>631</ele>
        <time>2013-04-28T14:50:12Z</time>
      </trkpt>
      <trkpt lat="43.40517" lon="5.47011">
        <ele>633</ele>
        <time>2013-04-28T14:50:20Z</time>
      </trkpt>
      <trkpt lat="43.40513" lon="5.4708">
        <ele>632</ele>
        <time>2013-04-28T14:50:29Z</time>
      </trkpt>
      <trkpt lat="43.40486" lon="5.47133">
        <ele>631</ele>
        <time>2013-04-28T14:50:37Z</time>
      </trkpt>
      <trkpt lat="43.4044" lon="5.47155">
        <ele>630</ele>
        <time>2013-04-28T14:50:45Z</time>
      </trkpt>
      <trkpt lat="43.40413" lon="5.47214">
        <ele>629</ele>
        <time>2013-04-28T14:50:52Z</time>
      </trkpt>
      <trkpt lat="43.40445" lon="5.47269">
        <ele>627</ele>
        <time>2013-04-28T14:50:59Z</time>
      </trkpt>
      <trkpt lat="43.40456" lon="5.47331">
        <ele>626</ele>
        <time>2013-04-28T14:51:06Z</time>
      </trkpt>
      <trkpt lat="43.40471" lon="5.4739">
        <ele>624</ele>
        <time>2013-04-28T14:51:17Z</time>
      </trkpt>
      <trkpt lat="43.40498" lon="5.47443">
        <ele>621</ele>
        <time>2013-04-28T14:51:31Z</time>
      </trkpt>
      <trkpt lat="43.40501" lon="5.4751">
        <ele>620</ele>
        <time>2013-04-28T14:51:40Z</time>
      </trkpt>
      <trkpt lat="43.40525" lon="5.47565">
        <ele>618</ele>
        <time>2013-04-28T14:51:48Z</time>
      </trkpt>
      <trkpt lat="43.40574" lon="5.47586">
        <ele>617</ele>
        <time>2013-04-28T14:51:56Z</time>
      </trkpt>
      <trkpt lat="43.40605" lon="5.47643">
        <ele>615</ele>
        <time>2013-04-28T14:52:04Z</time>
      </trkpt>
      <trkpt lat="43.40635" lon="5.47695">
        <ele>614</ele>
        <time>2013-04-28T14:52:10Z</time>
      </trkpt>
      <trkpt lat="43.40672" lon="5.47735">
        <ele>612</ele>
        <time>2013-04-28T14:52:16Z</time>
      </trkpt>
      <trkpt lat="43.40709" lon="5.47781">
        <ele>610</ele>
        <time>2013-04-28T14:52:22Z</time>
      </trkpt>
      <trkpt lat="43.40734" lon="5.47833">
        <ele>606</ele>
        <time>2013-04-28T14:52:28Z</time>
      </trkpt>
      <trkpt lat="43.40756" lon="5.47772">
        <ele>603</ele>
        <time>2013-04-28T14:52:47Z</time>
      </trkpt>
      <trkpt lat="43.408" lon="5.47755">
        <ele>599</ele>
        <time>2013-04-28T14:52:56Z</time>
      </trkpt>
      <trkpt lat="43.40834" lon="5.4771">
        <ele>594</ele>
        <time>2013-04-28T14:53:06Z</time>
      </trkpt>
      <trkpt lat="43.40878" lon="5.47692">
        <ele>589</ele>
        <time>2013-04-28T14:53:28Z</time>
      </trkpt>
      <trkpt lat="43.40918" lon="5.47725">
        <ele>586</ele>
        <time>2013-04-28T14:53:38Z</time>
      </trkpt>
      <trkpt lat="43.40914" lon="5.47788">
        <ele>584</ele>
        <time>2013-04-28T14:53:53Z</time>
      </trkpt>
      <trkpt lat="43.40908" lon="5.47854">
        <ele>581</ele>
        <time>2013-04-28T14:54:07Z</time>
      </trkpt>
      <trkpt lat="43.40925" lon="5.47918">
        <ele>579</ele>
        <time>2013-04-28T14:54:16Z</time>
      </trkpt>
      <trkpt lat="43.4092" lon="5.47987">
        <ele>577</ele>
        <time>2013-04-28T14:54:26Z</time>
      </trkpt>
      <trkpt lat="43.40919" lon="5.48055">
        <ele>574</ele>
        <time>2013-04-28T14:54:37Z</time>
      </trkpt>
      <trkpt lat="43.40917" lon="5.48118">
        <ele>573</ele>
        <time>2013-04-28T14:54:47Z</time>
      </trkpt>
      <trkpt lat="43.40923" lon="5.48186">
        <ele>571</ele>
        <time>2013-04-28T14:54:55Z</time>
      </trkpt>
      <trkpt lat="43.40917" lon="5.48253">
        <ele>568</ele>
        <time>2013-04-28T14:55:02Z</time>
      </trkpt>
      <trkpt lat="43.40913" lon="5.48319">
        <ele>565</ele>
        <time>2013-04-28T14:55:10Z</time>
      </trkpt>
      <trkpt lat="43.40906" lon="5.48384">
        <ele>562</ele>
        <time>2013-04-28T14:55:18Z</time>
      </trkpt>
      <trkpt lat="43.40912" lon="5.48446">
        <ele>559</ele>
        <time>2013-04-28T14:55:34Z</time>
      </trkpt>
      <trkpt lat="43.40918" lon="5.48508">
        <ele>556</ele>
        <time>2013-04-28T14:56:21Z</time>
      </trkpt>
      <trkpt lat="43.40928" lon="5.48573">
        <ele>558</ele>
        <time>2013-04-28T14:57:01Z</time>
      </trkpt>
      <trkpt lat="43.40947" lon="5.48635">
        <ele>557</ele>
        <time>2013-04-28T14:57:12Z</time>
      </trkpt>
      <trkpt lat="43.4095" lon="5.48698">
        <ele>557</ele>
        <time>2013-04-28T14:57:22Z</time>
      </trkpt>
      <trkpt lat="43.40971" lon="5.48754">
        <ele>555</ele>
        <time>2013-04-28T14:57:35Z</time>
      </trkpt>
      <trkpt lat="43.4098" lon="5.48819">
        <ele>553</ele>
        <time>2013-04-28T14:57:43Z</time>
      </trkpt>
      <trkpt lat="43.40992" lon="5.48884">
        <ele>551</ele>
        <time>2013-04-28T14:57:51Z</time>
      </trkpt>
      <trkpt lat="43.41004" lon="5.48943">
        <ele>549</ele>
        <time>2013-04-28T14:57:59Z</time>
      </trkpt>
      <trkpt lat="43.41024" lon="5.49009">
        <ele>548</ele>
        <time>2013-04-28T14:58:06Z</time>
      </trkpt>
      <trkpt lat="43.41053" lon="5.4906">
        <ele>546</ele>
        <time>2013-04-28T14:58:40Z</time>
      </trkpt>
      <trkpt lat="43.41039" lon="5.49119">
        <ele>545</ele>
        <time>2013-04-28T14:58:50Z</time>
      </trkpt>
      <trkpt lat="43.41039" lon="5.49182">
        <ele>546</ele>
        <time>2013-04-28T14:59:16Z</time>
      </trkpt>
      <trkpt lat="43.41041" lon="5.49244">
        <ele>549</ele>
        <time>2013-04-28T14:59:42Z</time>
      </trkpt>
      <trkpt lat="43.41031" lon="5.49305">
        <ele>551</ele>
        <time>2013-04-28T15:00:10Z</time>
      </trkpt>
      <trkpt lat="43.41019" lon="5.49367">
        <ele>553</ele>
        <time>2013-04-28T15:00:31Z</time>
      </trkpt>
      <trkpt lat="43.4099" lon="5.49416">
        <ele>555</ele>
        <time>2013-04-28T15:00:52Z</time>
      </trkpt>
      <trkpt lat="43.40961" lon="5.49464">
        <ele>558</ele>
        <time>2013-04-28T15:01:14Z</time>
      </trkpt>
      <trkpt lat="43.40941" lon="5.49521">
        <ele>560</ele>
        <time>2013-04-28T15:01:39Z</time>
      </trkpt>
      <trkpt lat="43.40924" lon="5.49582">
        <ele>564</ele>
        <time>2013-04-28T15:02:04Z</time>
      </trkpt>
      <trkpt lat="43.40903" lon="5.49638">
        <ele>567</ele>
        <time>2013-04-28T15:02:17Z</time>
      </trkpt>
      <trkpt lat="43.4087" lon="5.49685">
        <ele>567</ele>
        <time>2013-04-28T15:02:31Z</time>
      </trkpt>
      <trkpt lat="43.40864" lon="5.49746">
        <ele>568</ele>
        <time>2013-04-28T15:02:37Z</time>
      </trkpt>
      <trkpt lat="43.40842" lon="5.49802">
        <ele>568</ele>
        <time>2013-04-28T15:02:46Z</time>
      </trkpt>
      <trkpt lat="43.40853" lon="5.49866">
        <ele>569</ele>
        <time>2013-04-28T15:02:57Z</time>
      </trkpt>
      <trkpt lat="43.40836" lon="5.49925">
        <ele>569</ele>
        <time>2013-04-28T15:03:10Z</time>
      </trkpt>
      <trkpt lat="43.40809" lon="5.49975">
        <ele>569</ele>
        <time>2013-04-28T15:03:22Z</time>
      </trkpt>
      <trkpt lat="43.4077" lon="5.50009">
        <ele>569</ele>
        <time>2013-04-28T15:03:32Z</time>
      </trkpt>
      <trkpt lat="43.40728" lon="5.50034">
        <ele>568</ele>
        <time>2013-04-28T15:03:46Z</time>
      </trkpt>
      <trkpt lat="43.40708" lon="5.50093">
        <ele>569</ele>
        <time>2013-04-28T15:04:03Z</time>
      </trkpt>
      <trkpt lat="43.40704" lon="5.50154">
        <ele>571</ele>
        <time>2013-04-28T15:04:15Z</time>
      </trkpt>
      <trkpt lat="43.40689" lon="5.50214">
        <ele>572</ele>
        <time>2013-04-28T15:04:28Z</time>
      </trkpt>
      <trkpt lat="43.40678" lon="5.50276">
        <ele>573</ele>
        <time>2013-04-28T15:04:40Z</time>
      </trkpt>
      <trkpt lat="43.40672" lon="5.50337">
        <ele>575</ele>
        <time>2013-04-28T15:04:58Z</time>
      </trkpt>
      <trkpt lat="43.40642" lon="5.50383">
        <ele>577</ele>
        <time>2013-04-28T15:05:22Z</time>
      </trkpt>
      <trkpt lat="43.40667" lon="5.50436">
        <ele>580</ele>
        <time>2013-04-28T15:05:50Z</time>
      </trkpt>
      <trkpt lat="43.4067" lon="5.50499">
        <ele>583</ele>
        <time>2013-04-28T15:06:21Z</time>
      </trkpt>
      <trkpt lat="43.40669" lon="5.50562">
        <ele>589</ele>
        <time>2013-04-28T15:06:49Z</time>
      </trkpt>
      <trkpt lat="43.40653" lon="5.5062">
        <ele>595</ele>
        <time>2013-04-28T15:07:13Z</time>
      </trkpt>
      <trkpt lat="43.40656" lon="5.50681">
        <ele>600</ele>
        <time>2013-04-28T15:07:44Z</time>
      </trkpt>
      <trkpt lat="43.4065" lon="5.50743">
        <ele>603</ele>
        <time>2013-04-28T15:08:13Z</time>
      </trkpt>
      <trkpt lat="43.40659" lon="5.50805">
        <ele>609</ele>
        <time>2013-04-28T15:08:38Z</time>
      </trkpt>
      <trkpt lat="43.40687" lon="5.50855">
        <ele>610</ele>
        <time>2013-04-28T15:09:09Z</time>
      </trkpt>
      <trkpt lat="43.40718" lon="5.50806">
        <ele>614</ele>
        <time>2013-04-28T15:09:32Z</time>
      </trkpt>
      <trkpt lat="43.40758" lon="5.50774">
        <ele>622</ele>
        <time>2013-04-28T15:10:01Z</time>
      </trkpt>
      <trkpt lat="43.408" lon="5.50802">
        <ele>625</ele>
        <time>2013-04-28T15:10:32Z</time>
      </trkpt>
      <trkpt lat="43.40835" lon="5.50842">
        <ele>633</ele>
        <time>2013-04-28T15:10:57Z</time>
      </trkpt>
      <trkpt lat="43.40835" lon="5.50905">
        <ele>639</ele>
        <time>2013-04-28T15:11:19Z</time>
      </trkpt>
      <trkpt lat="43.40853" lon="5.50962">
        <ele>644</ele>
        <time>2013-04-28T15:11:50Z</time>
      </trkpt>
      <trkpt lat="43.40888" lon="5.51005">
        <ele>650</ele>
        <time>2013-04-28T15:12:19Z</time>
      </trkpt>
      <trkpt lat="43.40899" lon="5.51065">
        <ele>654</ele>
        <time>2013-04-28T15:12:51Z</time>
      </trkpt>
      <trkpt lat="43.40914" lon="5.51123">
        <ele>657</ele>
        <time>2013-04-28T15:13:15Z</time>
      </trkpt>
      <trkpt lat="43.40873" lon="5.51091">
        <ele>686</ele>
        <time>2013-04-28T15:14:30Z</time>
      </trkpt>
      <trkpt lat="43.40845" lon="5.51042">
        <ele>697</ele>
        <time>2013-04-28T15:14:50Z</time>
      </trkpt>
      <trkpt lat="43.40802" lon="5.5102">
        <ele>701</ele>
        <time>2013-04-28T15:15:14Z</time>
      </trkpt>
      <trkpt lat="43.40766" lon="5.5098">
        <ele>704</ele>
        <time>2013-04-28T15:15:43Z</time>
      </trkpt>
      <trkpt lat="43.40721" lon="5.50989">
        <ele>707</ele>
        <time>2013-04-28T15:16:15Z</time>
      </trkpt>
      <trkpt lat="43.40685" lon="5.51027">
        <ele>710</ele>
        <time>2013-04-28T15:16:47Z</time>
      </trkpt>
      <trkpt lat="43.40661" lon="5.5108">
        <ele>712</ele>
        <time>2013-04-28T15:17:19Z</time>
      </trkpt>
      <trkpt lat="43.40638" lon="5.51134">
        <ele>714</ele>
        <time>2013-04-28T15:17:53Z</time>
      </trkpt>
      <trkpt lat="43.40605" lon="5.51177">
        <ele>717</ele>
        <time>2013-04-28T15:18:20Z</time>
      </trkpt>
      <trkpt lat="43.40651" lon="5.5117">
        <ele>720</ele>
        <time>2013-04-28T15:19:10Z</time>
      </trkpt>
      <trkpt lat="43.40686" lon="5.51128">
        <ele>726</ele>
        <time>2013-04-28T15:19:26Z</time>
      </trkpt>
      <trkpt lat="43.40717" lon="5.51081">
        <ele>732</ele>
        <time>2013-04-28T15:19:42Z</time>
      </trkpt>
      <trkpt lat="43.4075" lon="5.51123">
        <ele>737</ele>
        <time>2013-04-28T15:20:07Z</time>
      </trkpt>
      <trkpt lat="43.4078" lon="5.51173">
        <ele>740</ele>
        <time>2013-04-28T15:20:32Z</time>
      </trkpt>
      <trkpt lat="43.40764" lon="5.51231">
        <ele>745</ele>
        <time>2013-04-28T15:20:53Z</time>
      </trkpt>
      <trkpt lat="43.40729" lon="5.51273">
        <ele>749</ele>
        <time>2013-04-28T15:21:16Z</time>
      </trkpt>
      <trkpt lat="43.40722" lon="5.5121">
        <ele>752</ele>
        <time>2013-04-28T15:22:15Z</time>
      </trkpt>
      <trkpt lat="43.40681" lon="5.51239">
        <ele>757</ele>
        <time>2013-04-28T15:22:49Z</time>
      </trkpt>
      <trkpt lat="43.40717" lon="5.51196">
        <ele>786</ele>
        <time>2013-04-28T15:27:31Z</time>
      </trkpt>
      <trkpt lat="43.40715" lon="5.51261">
        <ele>781</ele>
        <time>2013-04-28T15:27:44Z</time>
      </trkpt>
      <trkpt lat="43.40757" lon="5.51239">
        <ele>774</ele>
        <time>2013-04-28T15:28:03Z</time>
      </trkpt>
      <trkpt lat="43.40782" lon="5.51182">
        <ele>769</ele>
        <time>2013-04-28T15:28:10Z</time>
      </trkpt>
      <trkpt lat="43.40759" lon="5.51126">
        <ele>766</ele>
        <time>2013-04-28T15:28:17Z</time>
      </trkpt>
      <trkpt lat="43.40722" lon="5.51086">
        <ele>763</ele>
        <time>2013-04-28T15:28:23Z</time>
      </trkpt>
      <trkpt lat="43.40683" lon="5.51118">
        <ele>760</ele>
        <time>2013-04-28T15:28:32Z</time>
      </trkpt>
      <trkpt lat="43.40645" lon="5.51162">
        <ele>757</ele>
        <time>2013-04-28T15:28:39Z</time>
      </trkpt>
      <trkpt lat="43.40603" lon="5.51198">
        <ele>754</ele>
        <time>2013-04-28T15:28:46Z</time>
      </trkpt>
      <trkpt lat="43.40631" lon="5.51146">
        <ele>748</ele>
        <time>2013-04-28T15:29:00Z</time>
      </trkpt>
      <trkpt lat="43.40657" lon="5.51094">
        <ele>744</ele>
        <time>2013-04-28T15:29:06Z</time>
      </trkpt>
      <trkpt lat="43.40679" lon="5.51036">
        <ele>741</ele>
        <time>2013-04-28T15:29:12Z</time>
      </trkpt>
      <trkpt lat="43.4072" lon="5.50993">
        <ele>736</ele>
        <time>2013-04-28T15:29:19Z</time>
      </trkpt>
      <trkpt lat="43.40765" lon="5.50987">
        <ele>728</ele>
        <time>2013-04-28T15:29:29Z</time>
      </trkpt>
      <trkpt lat="43.40803" lon="5.51029">
        <ele>723</ele>
        <time>2013-04-28T15:29:36Z</time>
      </trkpt>
      <trkpt lat="43.40848" lon="5.51057">
        <ele>720</ele>
        <time>2013-04-28T15:29:42Z</time>
      </trkpt>
      <trkpt lat="43.40877" lon="5.51107">
        <ele>714</ele>
        <time>2013-04-28T15:29:48Z</time>
      </trkpt>
      <trkpt lat="43.40903" lon="5.51162">
        <ele>708</ele>
        <time>2013-04-28T15:29:54Z</time>
      </trkpt>
      <trkpt lat="43.40913" lon="5.51098">
        <ele>701</ele>
        <time>2013-04-28T15:30:08Z</time>
      </trkpt>
      <trkpt lat="43.409" lon="5.51029">
        <ele>697</ele>
        <time>2013-04-28T15:30:14Z</time>
      </trkpt>
      <trkpt lat="43.40876" lon="5.50973">
        <ele>692</ele>
        <time>2013-04-28T15:30:21Z</time>
      </trkpt>
      <trkpt lat="43.40835" lon="5.50941">
        <ele>688</ele>
        <time>2013-04-28T15:30:29Z</time>
      </trkpt>
      <trkpt lat="43.40843" lon="5.50878">
        <ele>685</ele>
        <time>2013-04-28T15:30:37Z</time>
      </trkpt>
      <trkpt lat="43.40823" lon="5.50823">
        <ele>681</ele>
        <time>2013-04-28T15:30:46Z</time>
      </trkpt>
      <trkpt lat="43.40788" lon="5.50783">
        <ele>677</ele>
        <time>2013-04-28T15:30:53Z</time>
      </trkpt>
      <trkpt lat="43.40741" lon="5.50785">
        <ele>673</ele>
        <time>2013-04-28T15:31:03Z</time>
      </trkpt>
      <trkpt lat="43.407" lon="5.50821">
        <ele>669</ele>
        <time>2013-04-28T15:31:10Z</time>
      </trkpt>
      <trkpt lat="43.4066" lon="5.50782">
        <ele>661</ele>
        <time>2013-04-28T15:31:23Z</time>
      </trkpt>
      <trkpt lat="43.40656" lon="5.50714">
        <ele>653</ele>
        <time>2013-04-28T15:31:30Z</time>
      </trkpt>
      <trkpt lat="43.4066" lon="5.50645">
        <ele>646</ele>
        <time>2013-04-28T15:31:37Z</time>
      </trkpt>
      <trkpt lat="43.40667" lon="5.50584">
        <ele>641</ele>
        <time>2013-04-28T15:31:44Z</time>
      </trkpt>
      <trkpt lat="43.40666" lon="5.50519">
        <ele>637</ele>
        <time>2013-04-28T15:31:51Z</time>
      </trkpt>
      <trkpt lat="43.4067" lon="5.50451">
        <ele>629</ele>
        <time>2013-04-28T15:31:59Z</time>
      </trkpt>
      <trkpt lat="43.40658" lon="5.50387">
        <ele>624</ele>
        <time>2013-04-28T15:32:07Z</time>
      </trkpt>
      <trkpt lat="43.40689" lon="5.50334">
        <ele>617</ele>
        <time>2013-04-28T15:32:19Z</time>
      </trkpt>
      <trkpt lat="43.40693" lon="5.50263">
        <ele>611</ele>
        <time>2013-04-28T15:32:25Z</time>
      </trkpt>
      <trkpt lat="43.40703" lon="5.502">
        <ele>604</ele>
        <time>2013-04-28T15:32:31Z</time>
      </trkpt>
      <trkpt lat="43.40722" lon="5.50143">
        <ele>601</ele>
        <time>2013-04-28T15:32:38Z</time>
      </trkpt>
      <trkpt lat="43.40724" lon="5.50073">
        <ele>599</ele>
        <time>2013-04-28T15:32:45Z</time>
      </trkpt>
      <trkpt lat="43.40758" lon="5.50022">
        <ele>595</ele>
        <time>2013-04-28T15:32:53Z</time>
      </trkpt>
      <trkpt lat="43.40801" lon="5.49989">
        <ele>591</ele>
        <time>2013-04-28T15:32:59Z</time>
      </trkpt>
      <trkpt lat="43.40842" lon="5.49961">
        <ele>587</ele>
        <time>2013-04-28T15:33:05Z</time>
      </trkpt>
      <trkpt lat="43.40834" lon="5.49895">
        <ele>584</ele>
        <time>2013-04-28T15:33:14Z</time>
      </trkpt>
      <trkpt lat="43.40854" lon="5.49836">
        <ele>583</ele>
        <time>2013-04-28T15:33:24Z</time>
      </trkpt>
      <trkpt lat="43.40864" lon="5.49773">
        <ele>581</ele>
        <time>2013-04-28T15:33:35Z</time>
      </trkpt>
      <trkpt lat="43.40869" lon="5.49711">
        <ele>581</ele>
        <time>2013-04-28T15:33:49Z</time>
      </trkpt>
      <trkpt lat="43.40896" lon="5.49661">
        <ele>581</ele>
        <time>2013-04-28T15:34:06Z</time>
      </trkpt>
      <trkpt lat="43.40923" lon="5.49608">
        <ele>581</ele>
        <time>2013-04-28T15:34:16Z</time>
      </trkpt>
      <trkpt lat="43.40924" lon="5.49542">
        <ele>580</ele>
        <time>2013-04-28T15:34:28Z</time>
      </trkpt>
      <trkpt lat="43.40963" lon="5.49504">
        <ele>580</ele>
        <time>2013-04-28T15:34:35Z</time>
      </trkpt>
      <trkpt lat="43.40985" lon="5.4944">
        <ele>580</ele>
        <time>2013-04-28T15:34:44Z</time>
      </trkpt>
      <trkpt lat="43.41016" lon="5.49393">
        <ele>579</ele>
        <time>2013-04-28T15:34:50Z</time>
      </trkpt>
      <trkpt lat="43.41036" lon="5.49337">
        <ele>577</ele>
        <time>2013-04-28T15:34:55Z</time>
      </trkpt>
      <trkpt lat="43.41044" lon="5.49274">
        <ele>575</ele>
        <time>2013-04-28T15:35:02Z</time>
      </trkpt>
      <trkpt lat="43.41053" lon="5.49208">
        <ele>571</ele>
        <time>2013-04-28T15:35:09Z</time>
      </trkpt>
      <trkpt lat="43.4105" lon="5.49142">
        <ele>567</ele>
        <time>2013-04-28T15:35:15Z</time>
      </trkpt>
      <trkpt lat="43.4105" lon="5.49079">
        <ele>565</ele>
        <time>2013-04-28T15:35:21Z</time>
      </trkpt>
      <trkpt lat="43.41028" lon="5.49017">
        <ele>561</ele>
        <time>2013-04-28T15:35:29Z</time>
      </trkpt>
      <trkpt lat="43.41008" lon="5.48959">
        <ele>557</ele>
        <time>2013-04-28T15:35:40Z</time>
      </trkpt>
      <trkpt lat="43.40994" lon="5.48898">
        <ele>556</ele>
        <time>2013-04-28T15:35:59Z</time>
      </trkpt>
      <trkpt lat="43.40979" lon="5.48838">
        <ele>556</ele>
        <time>2013-04-28T15:36:18Z</time>
      </trkpt>
      <trkpt lat="43.40968" lon="5.48777">
        <ele>557</ele>
        <time>2013-04-28T15:36:41Z</time>
      </trkpt>
      <trkpt lat="43.40946" lon="5.48718">
        <ele>559</ele>
        <time>2013-04-28T15:37:08Z</time>
      </trkpt>
      <trkpt lat="43.40937" lon="5.48655">
        <ele>561</ele>
        <time>2013-04-28T15:37:32Z</time>
      </trkpt>
      <trkpt lat="43.4092" lon="5.48596">
        <ele>563</ele>
        <time>2013-04-28T15:37:56Z</time>
      </trkpt>
      <trkpt lat="43.409" lon="5.48529">
        <ele>565</ele>
        <time>2013-04-28T15:38:16Z</time>
      </trkpt>
      <trkpt lat="43.40862" lon="5.48493">
        <ele>566</ele>
        <time>2013-04-28T15:38:36Z</time>
      </trkpt>
      <trkpt lat="43.40845" lon="5.48434">
        <ele>569</ele>
        <time>2013-04-28T15:38:57Z</time>
      </trkpt>
      <trkpt lat="43.40836" lon="5.48356">
        <ele>573</ele>
        <time>2013-04-28T15:39:24Z</time>
      </trkpt>
      <trkpt lat="43.40803" lon="5.48308">
        <ele>576</ele>
        <time>2013-04-28T15:39:48Z</time>
      </trkpt>
      <trkpt lat="43.40792" lon="5.48243">
        <ele>578</ele>
        <time>2013-04-28T15:39:57Z</time>
      </trkpt>
      <trkpt lat="43.40788" lon="5.48175">
        <ele>579</ele>
        <time>2013-04-28T15:40:05Z</time>
      </trkpt>
      <trkpt lat="43.40795" lon="5.48113">
        <ele>580</ele>
        <time>2013-04-28T15:40:12Z</time>
      </trkpt>
      <trkpt lat="43.40792" lon="5.48048">
        <ele>580</ele>
        <time>2013-04-28T15:40:20Z</time>
      </trkpt>
      <trkpt lat="43.4078" lon="5.47981">
        <ele>581</ele>
        <time>2013-04-28T15:40:28Z</time>
      </trkpt>
      <trkpt lat="43.4076" lon="5.47918">
        <ele>581</ele>
        <time>2013-04-28T15:40:35Z</time>
      </trkpt>
      <trkpt lat="43.40743" lon="5.47852">
        <ele>582</ele>
        <time>2013-04-28T15:40:42Z</time>
      </trkpt>
      <trkpt lat="43.40722" lon="5.47794">
        <ele>583</ele>
        <time>2013-04-28T15:40:50Z</time>
      </trkpt>
      <trkpt lat="43.40688" lon="5.4775">
        <ele>584</ele>
        <time>2013-04-28T15:41:07Z</time>
      </trkpt>
      <trkpt lat="43.4065" lon="5.47714">
        <ele>586</ele>
        <time>2013-04-28T15:41:27Z</time>
      </trkpt>
      <trkpt lat="43.40616" lon="5.4767">
        <ele>588</ele>
        <time>2013-04-28T15:41:50Z</time>
      </trkpt>
      <trkpt lat="43.40587" lon="5.47619">
        <ele>591</ele>
        <time>2013-04-28T15:42:10Z</time>
      </trkpt>
      <trkpt lat="43.40555" lon="5.47575">
        <ele>594</ele>
        <time>2013-04-28T15:42:32Z</time>
      </trkpt>
      <trkpt lat="43.40514" lon="5.47545">
        <ele>597</ele>
        <time>2013-04-28T15:42:57Z</time>
      </trkpt>
      <trkpt lat="43.40501" lon="5.47484">
        <ele>601</ele>
        <time>2013-04-28T15:43:18Z</time>
      </trkpt>
      <trkpt lat="43.40499" lon="5.47421">
        <ele>604</ele>
        <time>2013-04-28T15:43:39Z</time>
      </trkpt>
      <trkpt lat="43.40474" lon="5.47367">
        <ele>607</ele>
        <time>2013-04-28T15:43:57Z</time>
      </trkpt>
      <trkpt lat="43.40453" lon="5.47307">
        <ele>608</ele>
        <time>2013-04-28T15:44:07Z</time>
      </trkpt>
      <trkpt lat="43.40434" lon="5.47243">
        <ele>609</ele>
        <time>2013-04-28T15:44:15Z</time>
      </trkpt>
      <trkpt lat="43.40435" lon="5.47179">
        <ele>611</ele>
        <time>2013-04-28T15:44:29Z</time>
      </trkpt>
      <trkpt lat="43.40473" lon="5.47142">
        <ele>614</ele>
        <time>2013-04-28T15:44:52Z</time>
      </trkpt>
      <trkpt lat="43.40502" lon="5.47093">
        <ele>616</ele>
        <time>2013-04-28T15:45:16Z</time>
      </trkpt>
      <trkpt lat="43.40527" lon="5.47041">
        <ele>616</ele>
        <time>2013-04-28T15:45:40Z</time>
      </trkpt>
      <trkpt lat="43.40543" lon="5.46931">
        <ele>621</ele>
        <time>2013-04-28T15:46:27Z</time>
      </trkpt>
      <trkpt lat="43.40549" lon="5.46865">
        <ele>624</ele>
        <time>2013-04-28T15:46:41Z</time>
      </trkpt>
      <trkpt lat="43.40595" lon="5.46837">
        <ele>627</ele>
        <time>2013-04-28T15:46:51Z</time>
      </trkpt>
      <trkpt lat="43.40576" lon="5.46779">
        <ele>629</ele>
        <time>2013-04-28T15:47:23Z</time>
      </trkpt>
      <trkpt lat="43.4056" lon="5.4672">
        <ele>632</ele>
        <time>2013-04-28T15:47:48Z</time>
      </trkpt>
      <trkpt lat="43.40572" lon="5.46656">
        <ele>633</ele>
        <time>2013-04-28T15:48:02Z</time>
      </trkpt>
      <trkpt lat="43.406" lon="5.46605">
        <ele>634</ele>
        <time>2013-04-28T15:48:10Z</time>
      </trkpt>
      <trkpt lat="43.4059" lon="5.46544">
        <ele>635</ele>
        <time>2013-04-28T15:48:18Z</time>
      </trkpt>
      <trkpt lat="43.40593" lon="5.46479">
        <ele>634</ele>
        <time>2013-04-28T15:48:27Z</time>
      </trkpt>
      <trkpt lat="43.40617" lon="5.46423">
        <ele>632</ele>
        <time>2013-04-28T15:48:35Z</time>
      </trkpt>
      <trkpt lat="43.40618" lon="5.46358">
        <ele>629</ele>
        <time>2013-04-28T15:48:42Z</time>
      </trkpt>
      <trkpt lat="43.40614" lon="5.46295">
        <ele>627</ele>
        <time>2013-04-28T15:48:48Z</time>
      </trkpt>
      <trkpt lat="43.40613" lon="5.46233">
        <ele>625</ele>
        <time>2013-04-28T15:48:55Z</time>
      </trkpt>
      <trkpt lat="43.40607" lon="5.46163">
        <ele>624</ele>
        <time>2013-04-28T15:49:05Z</time>
      </trkpt>
      <trkpt lat="43.40616" lon="5.46099">
        <ele>623</ele>
        <time>2013-04-28T15:49:12Z</time>
      </trkpt>
      <trkpt lat="43.40645" lon="5.46051">
        <ele>620</ele>
        <time>2013-04-28T15:49:19Z</time>
      </trkpt>
      <trkpt lat="43.40687" lon="5.46012">
        <ele>618</ele>
        <time>2013-04-28T15:49:27Z</time>
      </trkpt>
      <trkpt lat="43.40723" lon="5.45962">
        <ele>615</ele>
        <time>2013-04-28T15:49:34Z</time>
      </trkpt>
      <trkpt lat="43.40763" lon="5.45931">
        <ele>613</ele>
        <time>2013-04-28T15:49:40Z</time>
      </trkpt>
      <trkpt lat="43.40784" lon="5.45869">
        <ele>609</ele>
        <time>2013-04-28T15:49:48Z</time>
      </trkpt>
      <trkpt lat="43.40801" lon="5.45803">
        <ele>606</ele>
        <time>2013-04-28T15:49:55Z</time>
      </trkpt>
      <trkpt lat="43.40833" lon="5.45753">
        <ele>603</ele>
        <time>2013-04-28T15:50:01Z</time>
      </trkpt>
      <trkpt lat="43.40861" lon="5.45698">
        <ele>600</ele>
        <time>2013-04-28T15:50:08Z</time>
      </trkpt>
      <trkpt lat="43.40851" lon="5.45634">
        <ele>598</ele>
        <time>2013-04-28T15:50:19Z</time>
      </trkpt>
      <trkpt lat="43.40814" lon="5.45597">
        <ele>596</ele>
        <time>2013-04-28T15:50:32Z</time>
      </trkpt>
      <trkpt lat="43.4077" lon="5.45571">
        <ele>594</ele>
        <time>2013-04-28T15:50:40Z</time>
      </trkpt>
      <trkpt lat="43.40737" lon="5.45613">
        <ele>592</ele>
        <time>2013-04-28T15:50:47Z</time>
      </trkpt>
      <trkpt lat="43.40698" lon="5.45655">
        <ele>590</ele>
        <time>2013-04-28T15:50:54Z</time>
      </trkpt>
      <trkpt lat="43.40658" lon="5.45696">
        <ele>587</ele>
        <time>2013-04-28T15:51:01Z</time>
      </trkpt>
      <trkpt lat="43.40639" lon="5.45752">
        <ele>584</ele>
        <time>2013-04-28T15:51:08Z</time>
      </trkpt>
      <trkpt lat="43.40614" lon="5.45806">
        <ele>583</ele>
        <time>2013-04-28T15:51:17Z</time>
      </trkpt>
      <trkpt lat="43.4059" lon="5.4586">
        <ele>582</ele>
        <time>2013-04-28T15:51:26Z</time>
      </trkpt>
      <trkpt lat="43.40551" lon="5.45901">
        <ele>580</ele>
        <time>2013-04-28T15:51:35Z</time>
      </trkpt>
      <trkpt lat="43.40575" lon="5.45844">
        <ele>575</ele>
        <time>2013-04-28T15:52:07Z</time>
      </trkpt>
      <trkpt lat="43.40567" lon="5.45781">
        <ele>570</ele>
        <time>2013-04-28T15:52:15Z</time>
      </trkpt>
      <trkpt lat="43.40601" lon="5.45734">
        <ele>565</ele>
        <time>2013-04-28T15:52:24Z</time>
      </trkpt>
      <trkpt lat="43.40606" lon="5.45669">
        <ele>561</ele>
        <time>2013-04-28T15:52:32Z</time>
      </trkpt>
      <trkpt lat="43.40629" lon="5.45616">
        <ele>558</ele>
        <time>2013-04-28T15:52:44Z</time>
      </trkpt>
      <trkpt lat="43.40672" lon="5.45575">
        <ele>554</ele>
        <time>2013-04-28T15:52:51Z</time>
      </trkpt>
      <trkpt lat="43.40679" lon="5.45508">
        <ele>550</ele>
        <time>2013-04-28T15:52:58Z</time>
      </trkpt>
      <trkpt lat="43.40667" lon="5.45448">
        <ele>546</ele>
        <time>2013-04-28T15:53:05Z</time>
      </trkpt>
      <trkpt lat="43.4065" lon="5.45388">
        <ele>540</ele>
        <time>2013-04-28T15:53:12Z</time>
      </trkpt>
      <trkpt lat="43.40624" lon="5.4533">
        <ele>536</ele>
        <time>2013-04-28T15:53:21Z</time>
      </trkpt>
      <trkpt lat="43.40606" lon="5.4527">
        <ele>532</ele>
        <time>2013-04-28T15:53:31Z</time>
      </trkpt>
      <trkpt lat="43.40626" lon="5.4521">
        <ele>527</ele>
        <time>2013-04-28T15:53:39Z</time>
      </trkpt>
      <trkpt lat="43.40635" lon="5.45139">
        <ele>525</ele>
        <time>2013-04-28T15:53:48Z</time>
      </trkpt>
      <trkpt lat="43.40677" lon="5.45102">
        <ele>522</ele>
        <time>2013-04-28T15:53:56Z</time>
      </trkpt>
      <trkpt lat="43.40722" lon="5.45073">
        <ele>518</ele>
        <time>2013-04-28T15:54:02Z</time>
      </trkpt>
      <trkpt lat="43.40759" lon="5.45036">
        <ele>514</ele>
        <time>2013-04-28T15:54:09Z</time>
      </trkpt>
      <trkpt lat="43.40792" lon="5.44984">
        <ele>511</ele>
        <time>2013-04-28T15:54:17Z</time>
      </trkpt>
      <trkpt lat="43.40801" lon="5.44915">
        <ele>505</ele>
        <time>2013-04-28T15:54:25Z</time>
      </trkpt>
      <trkpt lat="43.40813" lon="5.44847">
        <ele>499</ele>
        <time>2013-04-28T15:54:32Z</time>
      </trkpt>
      <trkpt lat="43.40826" lon="5.4478">
        <ele>495</ele>
        <time>2013-04-28T15:54:39Z</time>
      </trkpt>
      <trkpt lat="43.40818" lon="5.44717">
        <ele>491</ele>
        <time>2013-04-28T15:54:45Z</time>
      </trkpt>
      <trkpt lat="43.40846" lon="5.44659">
        <ele>487</ele>
        <time>2013-04-28T15:54:55Z</time>
      </trkpt>
      <trkpt lat="43.40871" lon="5.44602">
        <ele>483</ele>
        <time>2013-04-28T15:55:01Z</time>
      </trkpt>
      <trkpt lat="43.40879" lon="5.44535">
        <ele>479</ele>
        <time>2013-04-28T15:55:08Z</time>
      </trkpt>
      <trkpt lat="43.40895" lon="5.44474">
        <ele>475</ele>
        <time>2013-04-28T15:55:15Z</time>
      </trkpt>
      <trkpt lat="43.40909" lon="5.44413">
        <ele>469</ele>
        <time>2013-04-28T15:55:20Z</time>
      </trkpt>
      <trkpt lat="43.40893" lon="5.44335">
        <ele>465</ele>
        <time>2013-04-28T15:55:27Z</time>
      </trkpt>
      <trkpt lat="43.40881" lon="5.44266">
        <ele>460</ele>
        <time>2013-04-28T15:55:34Z</time>
      </trkpt>
      <trkpt lat="43.40864" lon="5.44205">
        <ele>456</ele>
        <time>2013-04-28T15:55:41Z</time>
      </trkpt>
      <trkpt lat="43.40861" lon="5.44135">
        <ele>452</ele>
        <time>2013-04-28T15:55:48Z</time>
      </trkpt>
      <trkpt lat="43.40863" lon="5.44073">
        <ele>448</ele>
        <time>2013-04-28T15:55:54Z</time>
      </trkpt>
      <trkpt lat="43.40857" lon="5.44006">
        <ele>444</ele>
        <time>2013-04-28T15:56:02Z</time>
      </trkpt>
      <trkpt lat="43.40877" lon="5.43942">
        <ele>440</ele>
        <time>2013-04-28T15:56:08Z</time>
      </trkpt>
      <trkpt lat="43.40841" lon="5.43898">
        <ele>436</ele>
        <time>2013-04-28T15:56:15Z</time>
      </trkpt>
      <trkpt lat="43.40878" lon="5.43857">
        <ele>431</ele>
        <time>2013-04-28T15:56:25Z</time>
      </trkpt>
      <trkpt lat="43.40879" lon="5.43787">
        <ele>426</ele>
        <time>2013-04-28T15:56:33Z</time>
      </trkpt>
      <trkpt lat="43.40854" lon="5.43731">
        <ele>421</ele>
        <time>2013-04-28T15:56:41Z</time>
      </trkpt>
      <trkpt lat="43.40845" lon="5.4367">
        <ele>415</ele>
        <time>2013-04-28T15:56:48Z</time>
      </trkpt>
      <trkpt lat="43.40835" lon="5.43605">
        <ele>410</ele>
        <time>2013-04-28T15:56:56Z</time>
      </trkpt>
      <trkpt lat="43.40878" lon="5.43566">
        <ele>406</ele>
        <time>2013-04-28T15:57:04Z</time>
      </trkpt>
      <trkpt lat="43.40866" lon="5.43503">
        <ele>400</ele>
        <time>2013-04-28T15:57:12Z</time>
      </trkpt>
      <trkpt lat="43.40819" lon="5.43472">
        <ele>395</ele>
        <time>2013-04-28T15:57:21Z</time>
      </trkpt>
      <trkpt lat="43.40772" lon="5.43459">
        <ele>391</ele>
        <time>2013-04-28T15:57:29Z</time>
      </trkpt>
      <trkpt lat="43.40762" lon="5.43392">
        <ele>387</ele>
        <time>2013-04-28T15:57:36Z</time>
      </trkpt>
      <trkpt lat="43.40756" lon="5.43323">
        <ele>383</ele>
        <time>2013-04-28T15:57:44Z</time>
      </trkpt>
      <trkpt lat="43.40798" lon="5.43292">
        <ele>378</ele>
        <time>2013-04-28T15:57:55Z</time>
      </trkpt>
      <trkpt lat="43.40843" lon="5.43269">
        <ele>373</ele>
        <time>2013-04-28T15:58:03Z</time>
      </trkpt>
      <trkpt lat="43.40874" lon="5.43214">
        <ele>370</ele>
        <time>2013-04-28T15:58:09Z</time>
      </trkpt>
      <trkpt lat="43.40858" lon="5.4315">
        <ele>367</ele>
        <time>2013-04-28T15:58:18Z</time>
      </trkpt>
      <trkpt lat="43.40889" lon="5.43098">
        <ele>361</ele>
        <time>2013-04-28T15:58:51Z</time>
      </trkpt>
      <trkpt lat="43.40936" lon="5.43105">
        <ele>358</ele>
        <time>2013-04-28T15:59:00Z</time>
      </trkpt>
      <trkpt lat="43.40966" lon="5.43054">
        <ele>355</ele>
        <time>2013-04-28T15:59:11Z</time>
      </trkpt>
      <trkpt lat="43.40979" lon="5.42995">
        <ele>352</ele>
        <time>2013-04-28T15:59:17Z</time>
      </trkpt>
      <trkpt lat="43.41024" lon="5.42981">
        <ele>348</ele>
        <time>2013-04-28T15:59:25Z</time>
      </trkpt>
      <trkpt lat="43.41057" lon="5.42931">
        <ele>344</ele>
        <time>2013-04-28T15:59:32Z</time>
      </trkpt>
      <trkpt lat="43.41082" lon="5.42873">
        <ele>339</ele>
        <time>2013-04-28T15:59:39Z</time>
      </trkpt>
      <trkpt lat="43.41102" lon="5.42816">
        <ele>334</ele>
        <time>2013-04-28T15:59:45Z</time>
      </trkpt>
      <trkpt lat="43.41108" lon="5.42751">
        <ele>330</ele>
        <time>2013-04-28T15:59:51Z</time>
      </trkpt>
      <trkpt lat="43.41104" lon="5.42689">
        <ele>325</ele>
        <time>2013-04-28T16:00:01Z</time>
      </trkpt>
      <trkpt lat="43.41122" lon="5.4263">
        <ele>319</ele>
        <time>2013-04-28T16:00:13Z</time>
      </trkpt>
      <trkpt lat="43.41167" lon="5.42611">
        <ele>315</ele>
        <time>2013-04-28T16:00:25Z</time>
      </trkpt>
      <trkpt lat="43.41213" lon="5.42578">
        <ele>311</ele>
        <time>2013-04-28T16:00:33Z</time>
      </trkpt>
      <trkpt lat="43.41243" lon="5.42531">
        <ele>308</ele>
        <time>2013-04-28T16:00:40Z</time>
      </trkpt>
      <trkpt lat="43.41283" lon="5.42492">
        <ele>306</ele>
        <time>2013-04-28T16:00:48Z</time>
      </trkpt>
      <trkpt lat="43.41329" lon="5.42522">
        <ele>303</ele>
        <time>2013-04-28T16:00:55Z</time>
      </trkpt>
      <trkpt lat="43.41366" lon="5.42561">
        <ele>302</ele>
        <time>2013-04-28T16:01:01Z</time>
      </trkpt>
      <trkpt lat="43.41406" lon="5.42591">
        <ele>302</ele>
        <time>2013-04-28T16:01:06Z</time>
      </trkpt>
      <trkpt lat="43.41453" lon="5.4259">
        <ele>301</ele>
        <time>2013-04-28T16:01:14Z</time>
      </trkpt>
      <trkpt lat="43.4145" lon="5.42657">
        <ele>300</ele>
        <time>2013-04-28T16:01:34Z</time>
      </trkpt>
      <trkpt lat="43.41445" lon="5.42722">
        <ele>300</ele>
        <time>2013-04-28T16:01:55Z</time>
      </trkpt>
      <trkpt lat="43.41455" lon="5.42784">
        <ele>300</ele>
        <time>2013-04-28T16:02:13Z</time>
      </trkpt>
      <trkpt lat="43.41462" lon="5.42846">
        <ele>300</ele>
        <time>2013-04-28T16:02:33Z</time>
      </trkpt>
      <trkpt lat="43.41466" lon="5.42907">
        <ele>301</ele>
        <time>2013-04-28T16:02:56Z</time>
      </trkpt>
      <trkpt lat="43.41454" lon="5.42969">
        <ele>303</ele>
        <time>2013-04-28T16:03:06Z</time>
      </trkpt>
      <trkpt lat="43.41501" lon="5.42964">
        <ele>305</ele>
        <time>2013-04-28T16:03:34Z</time>
      </trkpt>
      <trkpt lat="43.41506" lon="5.42902">
        <ele>307</ele>
        <time>2013-04-28T16:03:41Z</time>
      </trkpt>
      <trkpt lat="43.41516" lon="5.42831">
        <ele>308</ele>
        <time>2013-04-28T16:03:50Z</time>
      </trkpt>
      <trkpt lat="43.41525" lon="5.42763">
        <ele>306</ele>
        <time>2013-04-28T16:03:59Z</time>
      </trkpt>
      <trkpt lat="43.41544" lon="5.427">
        <ele>306</ele>
        <time>2013-04-28T16:04:07Z</time>
      </trkpt>
      <trkpt lat="43.41588" lon="5.42682">
        <ele>306</ele>
        <time>2013-04-28T16:04:16Z</time>
      </trkpt>
      <trkpt lat="43.41632" lon="5.42694">
        <ele>307</ele>
        <time>2013-04-28T16:04:24Z</time>
      </trkpt>
      <trkpt lat="43.41673" lon="5.42656">
        <ele>307</ele>
        <time>2013-04-28T16:04:31Z</time>
      </trkpt>
      <trkpt lat="43.41704" lon="5.42611">
        <ele>305</ele>
        <time>2013-04-28T16:04:38Z</time>
      </trkpt>
      <trkpt lat="43.41755" lon="5.42633">
        <ele>303</ele>
        <time>2013-04-28T16:04:44Z</time>
      </trkpt>
      <trkpt lat="43.41802" lon="5.42648">
        <ele>302</ele>
        <time>2013-04-28T16:04:49Z</time>
      </trkpt>
      <trkpt lat="43.41847" lon="5.42611">
        <ele>298</ele>
        <time>2013-04-28T16:04:54Z</time>
      </trkpt>
      <trkpt lat="43.41887" lon="5.42577">
        <ele>295</ele>
        <time>2013-04-28T16:04:59Z</time>
      </trkpt>
      <trkpt lat="43.41931" lon="5.42564">
        <ele>291</ele>
        <time>2013-04-28T16:05:05Z</time>
      </trkpt>
      <trkpt lat="43.41954" lon="5.42505">
        <ele>288</ele>
        <time>2013-04-28T16:05:11Z</time>
      </trkpt>
      <trkpt lat="43.42" lon="5.42492">
        <ele>284</ele>
        <time>2013-04-28T16:05:18Z</time>
      </trkpt>
      <trkpt lat="43.42036" lon="5.42443">
        <ele>279</ele>
        <time>2013-04-28T16:05:24Z</time>
      </trkpt>
      <trkpt lat="43.42083" lon="5.42434">
        <ele>275</ele>
        <time>2013-04-28T16:05:34Z</time>
      </trkpt>
      <trkpt lat="43.4213" lon="5.42459">
        <ele>271</ele>
        <time>2013-04-28T16:05:41Z</time>
      </trkpt>
      <trkpt lat="43.42176" lon="5.42445">
        <ele>269</ele>
        <time>2013-04-28T16:05:47Z</time>
      </trkpt>
      <trkpt lat="43.4221" lon="5.42399">
        <ele>266</ele>
        <time>2013-04-28T16:05:53Z</time>
      </trkpt>
      <trkpt lat="43.42248" lon="5.42357">
        <ele>263</ele>
        <time>2013-04-28T16:05:59Z</time>
      </trkpt>
      <trkpt lat="43.42277" lon="5.42296">
        <ele>261</ele>
        <time>2013-04-28T16:06:06Z</time>
      </trkpt>
      <trkpt lat="43.4232" lon="5.42258">
        <ele>259</ele>
        <time>2013-04-28T16:06:13Z</time>
      </trkpt>
      <trkpt lat="43.42362" lon="5.42237">
        <ele>257</ele>
        <time>2013-04-28T16:06:19Z</time>
      </trkpt>
      <trkpt lat="43.42399" lon="5.42191">
        <ele>256</ele>
        <time>2013-04-28T16:06:28Z</time>
      </trkpt>
      <trkpt lat="43.42438" lon="5.42157">
        <ele>254</ele>
        <time>2013-04-28T16:06:38Z</time>
      </trkpt>
      <trkpt lat="43.42442" lon="5.42085">
        <ele>253</ele>
        <time>2013-04-28T16:06:45Z</time>
      </trkpt>
      <trkpt lat="43.42452" lon="5.42024">
        <ele>251</ele>
        <time>2013-04-28T16:06:54Z</time>
      </trkpt>
      <trkpt lat="43.42488" lon="5.41982">
        <ele>251</ele>
        <time>2013-04-28T16:07:08Z</time>
      </trkpt>
      <trkpt lat="43.42531" lon="5.41953">
        <ele>252</ele>
        <time>2013-04-28T16:07:23Z</time>
      </trkpt>
      <trkpt lat="43.42571" lon="5.4199">
        <ele>253</ele>
        <time>2013-04-28T16:07:34Z</time>
      </trkpt>
      <trkpt lat="43.4262" lon="5.42012">
        <ele>252</ele>
        <time>2013-04-28T16:07:44Z</time>
      </trkpt>
      <trkpt lat="43.42658" lon="5.42058">
        <ele>252</ele>
        <time>2013-04-28T16:07:51Z</time>
      </trkpt>
      <trkpt lat="43.42664" lon="5.4213">
        <ele>250</ele>
        <time>2013-04-28T16:07:57Z</time>
      </trkpt>
      <trkpt lat="43.42672" lon="5.42191">
        <ele>249</ele>
        <time>2013-04-28T16:08:02Z</time>
      </trkpt>
      <trkpt lat="43.42702" lon="5.42241">
        <ele>247</ele>
        <time>2013-04-28T16:08:08Z</time>
      </trkpt>
      <trkpt lat="43.42735" lon="5.42296">
        <ele>244</ele>
        <time>2013-04-28T16:08:13Z</time>
      </trkpt>
      <trkpt lat="43.42758" lon="5.42351">
        <ele>241</ele>
        <time>2013-04-28T16:08:19Z</time>
      </trkpt>
      <trkpt lat="43.42785" lon="5.42403">
        <ele>239</ele>
        <time>2013-04-28T16:08:26Z</time>
      </trkpt>
      <trkpt lat="43.4282" lon="5.42457">
        <ele>238</ele>
        <time>2013-04-28T16:08:34Z</time>
      </trkpt>
      <trkpt lat="43.42852" lon="5.42507">
        <ele>236</ele>
        <time>2013-04-28T16:08:43Z</time>
      </trkpt>
      <trkpt lat="43.42854" lon="5.42437">
        <ele>235</ele>
        <time>2013-04-28T16:08:51Z</time>
      </trkpt>
      <trkpt lat="43.42859" lon="5.42362">
        <ele>232</ele>
        <time>2013-04-28T16:08:57Z</time>
      </trkpt>
      <trkpt lat="43.42876" lon="5.423">
        <ele>229</ele>
        <time>2013-04-28T16:09:03Z</time>
      </trkpt>
      <trkpt lat="43.4288" lon="5.42238">
        <ele>227</ele>
        <time>2013-04-28T16:09:09Z</time>
      </trkpt>
      <trkpt lat="43.42878" lon="5.42169">
        <ele>224</ele>
        <time>2013-04-28T16:09:15Z</time>
      </trkpt>
      <trkpt lat="43.4288" lon="5.42107">
        <ele>223</ele>
        <time>2013-04-28T16:09:21Z</time>
      </trkpt>
      <trkpt lat="43.42882" lon="5.42034">
        <ele>222</ele>
        <time>2013-04-28T16:09:28Z</time>
      </trkpt>
      <trkpt lat="43.42889" lon="5.41972">
        <ele>220</ele>
        <time>2013-04-28T16:09:35Z</time>
      </trkpt>
      <trkpt lat="43.42891" lon="5.41906">
        <ele>219</ele>
        <time>2013-04-28T16:09:42Z</time>
      </trkpt>
      <trkpt lat="43.42873" lon="5.41847">
        <ele>217</ele>
        <time>2013-04-28T16:09:50Z</time>
      </trkpt>
      <trkpt lat="43.42873" lon="5.41778">
        <ele>216</ele>
        <time>2013-04-28T16:09:57Z</time>
      </trkpt>
      <trkpt lat="43.42875" lon="5.41716">
        <ele>216</ele>
        <time>2013-04-28T16:10:04Z</time>
      </trkpt>
      <trkpt lat="43.42873" lon="5.41647">
        <ele>217</ele>
        <time>2013-04-28T16:10:13Z</time>
      </trkpt>
      <trkpt lat="43.42873" lon="5.4158">
        <ele>217</ele>
        <time>2013-04-28T16:10:22Z</time>
      </trkpt>
      <trkpt lat="43.42881" lon="5.41517">
        <ele>218</ele>
        <time>2013-04-28T16:10:31Z</time>
      </trkpt>
      <trkpt lat="43.42872" lon="5.41456">
        <ele>218</ele>
        <time>2013-04-28T16:10:38Z</time>
      </trkpt>
      <trkpt lat="43.42869" lon="5.41393">
        <ele>219</ele>
        <time>2013-04-28T16:10:45Z</time>
      </trkpt>
      <trkpt lat="43.42872" lon="5.41327">
        <ele>219</ele>
        <time>2013-04-28T16:10:52Z</time>
      </trkpt>
      <trkpt lat="43.42872" lon="5.41264">
        <ele>218</ele>
        <time>2013-04-28T16:10:58Z</time>
      </trkpt>
      <trkpt lat="43.42876" lon="5.41192">
        <ele>217</ele>
        <time>2013-04-28T16:11:05Z</time>
      </trkpt>
      <trkpt lat="43.42886" lon="5.41125">
        <ele>216</ele>
        <time>2013-04-28T16:11:11Z</time>
      </trkpt>
      <trkpt lat="43.42892" lon="5.41053">
        <ele>214</ele>
        <time>2013-04-28T16:11:17Z</time>
      </trkpt>
      <trkpt lat="43.42896" lon="5.40984">
        <ele>213</ele>
        <time>2013-04-28T16:11:23Z</time>
      </trkpt>
      <trkpt lat="43.42893" lon="5.40918">
        <ele>212</ele>
        <time>2013-04-28T16:11:29Z</time>
      </trkpt>
      <trkpt lat="43.42889" lon="5.40855">
        <ele>211</ele>
        <time>2013-04-28T16:11:36Z</time>
      </trkpt>
      <trkpt lat="43.42872" lon="5.40797">
        <ele>210</ele>
        <time>2013-04-28T16:11:44Z</time>
      </trkpt>
      <trkpt lat="43.42854" lon="5.40737">
        <ele>210</ele>
        <time>2013-04-28T16:11:53Z</time>
      </trkpt>
      <trkpt lat="43.42836" lon="5.40675">
        <ele>210</ele>
        <time>2013-04-28T16:12:03Z</time>
      </trkpt>
      <trkpt lat="43.42811" lon="5.40615">
        <ele>211</ele>
        <time>2013-04-28T16:12:13Z</time>
      </trkpt>
      <trkpt lat="43.42795" lon="5.40549">
        <ele>211</ele>
        <time>2013-04-28T16:12:22Z</time>
      </trkpt>
      <trkpt lat="43.42771" lon="5.40493">
        <ele>211</ele>
        <time>2013-04-28T16:12:29Z</time>
      </trkpt>
      <trkpt lat="43.42755" lon="5.40424">
        <ele>210</ele>
        <time>2013-04-28T16:12:36Z</time>
      </trkpt>
      <trkpt lat="43.42771" lon="5.4036">
        <ele>210</ele>
        <time>2013-04-28T16:12:43Z</time>
      </trkpt>
      <trkpt lat="43.42763" lon="5.40295">
        <ele>210</ele>
        <time>2013-04-28T16:12:51Z</time>
      </trkpt>
      <trkpt lat="43.42748" lon="5.4023">
        <ele>210</ele>
        <time>2013-04-28T16:13:02Z</time>
      </trkpt>
      <trkpt lat="43.42799" lon="5.40228">
        <ele>210</ele>
        <time>2013-04-28T16:13:12Z</time>
      </trkpt>
      <trkpt lat="43.42849" lon="5.40243">
        <ele>210</ele>
        <time>2013-04-28T16:13:22Z</time>
      </trkpt>
      <trkpt lat="43.42896" lon="5.40289">
        <ele>209</ele>
        <time>2013-04-28T16:13:30Z</time>
      </trkpt>
      <trkpt lat="43.42883" lon="5.40358">
        <ele>208</ele>
        <time>2013-04-28T16:13:36Z</time>
      </trkpt>
      <trkpt lat="43.42899" lon="5.40416">
        <ele>207</ele>
        <time>2013-04-28T16:13:52Z</time>
      </trkpt>
      <trkpt lat="43.42934" lon="5.40366">
        <ele>206</ele>
        <time>2013-04-28T16:14:00Z</time>
      </trkpt>
      <trkpt lat="43.42978" lon="5.40328">
        <ele>204</ele>
        <time>2013-04-28T16:14:07Z</time>
      </trkpt>
      <trkpt lat="43.4301" lon="5.40278">
        <ele>203</ele>
        <time>2013-04-28T16:14:12Z</time>
      </trkpt>
      <trkpt lat="43.43052" lon="5.40251">
        <ele>201</ele>
        <time>2013-04-28T16:14:17Z</time>
      </trkpt>
      <trkpt lat="43.431" lon="5.40259">
        <ele>200</ele>
        <time>2013-04-28T16:14:22Z</time>
      </trkpt>
      <trkpt lat="43.43139" lon="5.4029">
        <ele>198</ele>
        <time>2013-04-28T16:14:27Z</time>
      </trkpt>
      <trkpt lat="43.43176" lon="5.40329">
        <ele>197</ele>
        <time>2013-04-28T16:14:33Z</time>
      </trkpt>
      <trkpt lat="43.43221" lon="5.40351">
        <ele>196</ele>
        <time>2013-04-28T16:14:39Z</time>
      </trkpt>
      <trkpt lat="43.43268" lon="5.40348">
        <ele>195</ele>
        <time>2013-04-28T16:14:45Z</time>
      </trkpt>
      <trkpt lat="43.43318" lon="5.40345">
        <ele>194</ele>
        <time>2013-04-28T16:14:51Z</time>
      </trkpt>
      <trkpt lat="43.43366" lon="5.40355">
        <ele>194</ele>
        <time>2013-04-28T16:14:57Z</time>
      </trkpt>
      <trkpt lat="43.4341" lon="5.40371">
        <ele>193</ele>
        <time>2013-04-28T16:15:03Z</time>
      </trkpt>
      <trkpt lat="43.43459" lon="5.4039">
        <ele>192</ele>
        <time>2013-04-28T16:15:10Z</time>
      </trkpt>
      <trkpt lat="43.43509" lon="5.40397">
        <ele>191</ele>
        <time>2013-04-28T16:15:17Z</time>
      </trkpt>
      <trkpt lat="43.43559" lon="5.4039">
        <ele>190</ele>
        <time>2013-04-28T16:15:24Z</time>
      </trkpt>
      <trkpt lat="43.43601" lon="5.40439">
        <ele>190</ele>
        <time>2013-04-28T16:15:34Z</time>
      </trkpt>
      <trkpt lat="43.43586" lon="5.40499">
        <ele>189</ele>
        <time>2013-04-28T16:15:41Z</time>
      </trkpt>
      <trkpt lat="43.43564" lon="5.40555">
        <ele>189</ele>
        <time>2013-04-28T16:15:50Z</time>
      </trkpt>
      <trkpt lat="43.43539" lon="5.40612">
        <ele>189</ele>
        <time>2013-04-28T16:15:59Z</time>
      </trkpt>
      <trkpt lat="43.43511" lon="5.40664">
        <ele>189</ele>
        <time>2013-04-28T16:16:08Z</time>
      </trkpt>
      <trkpt lat="43.43487" lon="5.40723">
        <ele>190</ele>
        <time>2013-04-28T16:16:18Z</time>
      </trkpt>
      <trkpt lat="43.43464" lon="5.4078">
        <ele>191</ele>
        <time>2013-04-28T16:16:27Z</time>
      </trkpt>
      <trkpt lat="43.43452" lon="5.40843">
        <ele>192</ele>
        <time>2013-04-28T16:16:35Z</time>
      </trkpt>
      <trkpt lat="43.43447" lon="5.40911">
        <ele>191</ele>
        <time>2013-04-28T16:16:45Z</time>
      </trkpt>
      <trkpt lat="43.43449" lon="5.40983">
        <ele>192</ele>
        <time>2013-04-28T16:16:57Z</time>
      </trkpt>
      <trkpt lat="43.43496" lon="5.40979">
        <ele>192</ele>
        <time>2013-04-28T16:17:05Z</time>
      </trkpt>
      <trkpt lat="43.43542" lon="5.40974">
        <ele>192</ele>
        <time>2013-04-28T16:17:14Z</time>
      </trkpt>
      <trkpt lat="43.43586" lon="5.40955">
        <ele>191</ele>
        <time>2013-04-28T16:17:22Z</time>
      </trkpt>
      <trkpt lat="43.43633" lon="5.40945">
        <ele>191</ele>
        <time>2013-04-28T16:17:30Z</time>
      </trkpt>
      <trkpt lat="43.43681" lon="5.40933">
        <ele>191</ele>
        <time>2013-04-28T16:17:38Z</time>
      </trkpt>
      <trkpt lat="43.43722" lon="5.40965">
        <ele>191</ele>
        <time>2013-04-28T16:17:46Z</time>
      </trkpt>
      <trkpt lat="43.43766" lon="5.40997">
        <ele>191</ele>
        <time>2013-04-28T16:17:56Z</time>
      </trkpt>
      <trkpt lat="43.43808" lon="5.41022">
        <ele>191</ele>
        <time>2013-04-28T16:18:08Z</time>
      </trkpt>
      <trkpt lat="43.43849" lon="5.40993">
        <ele>192</ele>
        <time>2013-04-28T16:18:22Z</time>
      </trkpt>
      <trkpt lat="43.43882" lon="5.40942">
        <ele>192</ele>
        <time>2013-04-28T16:18:34Z</time>
      </trkpt>
      <trkpt lat="43.43911" lon="5.4089">
        <ele>193</ele>
        <time>2013-04-28T16:18:47Z</time>
      </trkpt>
      <trkpt lat="43.43953" lon="5.40862">
        <ele>195</ele>
        <time>2013-04-28T16:19:04Z</time>
      </trkpt>
      <trkpt lat="43.43998" lon="5.40853">
        <ele>195</ele>
        <time>2013-04-28T16:19:27Z</time>
      </trkpt>
      <trkpt lat="43.44038" lon="5.40888">
        <ele>194</ele>
        <time>2013-04-28T16:19:42Z</time>
      </trkpt>
      <trkpt lat="43.44068" lon="5.40938">
        <ele>193</ele>
        <time>2013-04-28T16:20:17Z</time>
      </trkpt>
      <trkpt lat="43.44113" lon="5.40921">
        <ele>191</ele>
        <time>2013-04-28T16:20:24Z</time>
      </trkpt>
      <trkpt lat="43.44083" lon="5.40873">
        <ele>189</ele>
        <time>2013-04-28T16:21:15Z</time>
      </trkpt>
    </trkseg>
  </trk>
</gpx>